Observation data for Van Horn on 05/26/2019      Previous  Date  Next       Current Mesonet Observations  Soil Data  Daily Summary Page  Observations in Plain Language
KVA1 260500Z 05005KT 25/16 A2993 RMK A01 T02530156  RH  055%=      5-min Rain = 0
KVA1 260501Z 05005KT 25/16 A2993 RMK A01 T02540156  RH  055%=      5-min Rain = 0
KVA1 260502Z 05005KT 25/16 A2993 RMK A01 T02540156  RH  055%=      5-min Rain = 0
KVA1 260503Z 04004KT 26/16 A2993 RMK A01 T02550157  RH  055%=      5-min Rain = 0
KVA1 260504Z 03005KT 26/16 A2993 RMK A01 T02550156  RH  054%=      5-min Rain = 0
KVA1 260505Z 02005KT 26/16 A2993 RMK A01 T02550156  RH  054%=      5-min Rain = 0
KVA1 260506Z 01005KT 26/16 A2993 RMK A01 T02550156  RH  054%=      5-min Rain = 0
KVA1 260507Z 01005KT 25/16 A2993 RMK A01 T02540155  RH  054%=      5-min Rain = 0
KVA1 260508Z 01006KT 25/16 A2993 RMK A01 T02530155  RH  055%=      5-min Rain = 0
KVA1 260509Z 02006KT 25/16 A2993 RMK A01 T02530155  RH  055%=      5-min Rain = 0
KVA1 260510Z 02005KT 25/16 A2993 RMK A01 T02530155  RH  055%=      5-min Rain = 0
KVA1 260511Z 02004KT 25/16 A2993 RMK A01 T02530155  RH  055%=      5-min Rain = 0
KVA1 260512Z 03006KT 25/15 A2993 RMK A01 T02530154  RH  054%=      5-min Rain = 0
KVA1 260513Z 03006KT 25/15 A2993 RMK A01 T02530152  RH  054%=      5-min Rain = 0
KVA1 260514Z 03005KT 25/15 A2993 RMK A01 T02540152  RH  053%=      5-min Rain = 0
KVA1 260515Z 03005KT 26/15 A2993 RMK A01 T02550152  RH  053%=      5-min Rain = 0
KVA1 260516Z 04005KT 26/15 A2993 RMK A01 T02550152  RH  053%=      5-min Rain = 0
KVA1 260517Z 04005KT 26/15 A2993 RMK A01 T02550152  RH  053%=      5-min Rain = 0
KVA1 260518Z 06005KT 26/15 A2993 RMK A01 T02550151  RH  053%=      5-min Rain = 0
KVA1 260519Z 07006KT 26/15 A2993 RMK A01 T02550152  RH  053%=      5-min Rain = 0
KVA1 260520Z 09007KT 25/15 A2994 RMK A01 T02540152  RH  053%=      5-min Rain = 0
KVA1 260521Z 10006KT 25/15 A2994 RMK A01 T02530152  RH  053%=      5-min Rain = 0
KVA1 260522Z 09005KT 25/15 A2994 RMK A01 T02520152  RH  054%=      5-min Rain = 0
KVA1 260523Z 06004KT 25/15 A2994 RMK A01 T02520152  RH  054%=      5-min Rain = 0
KVA1 260524Z 06003KT 25/15 A2993 RMK A01 T02510153  RH  054%=      5-min Rain = 0
KVA1 260525Z 07002KT 25/15 A2993 RMK A01 T02510152  RH  054%=      5-min Rain = 0
KVA1 260526Z 09003KT 25/15 A2994 RMK A01 T02510152  RH  054%=      5-min Rain = 0
KVA1 260527Z 10004KT 25/15 A2994 RMK A01 T02510152  RH  054%=      5-min Rain = 0
KVA1 260528Z 10005KT 25/15 A2994 RMK A01 T02500152  RH  055%=      5-min Rain = 0
KVA1 260529Z 11004KT 25/15 A2994 RMK A01 T02490153  RH  055%=      5-min Rain = 0
KVA1 260530Z 12005KT 25/15 A2994 RMK A01 T02490153  RH  055%=      5-min Rain = 0
KVA1 260531Z 12005KT 25/15 A2994 RMK A01 T02480154  RH  056%=      5-min Rain = 0
KVA1 260532Z 12005KT 25/16 A2994 RMK A01 T02470155  RH  056%=      5-min Rain = 0
KVA1 260533Z 12005KT 25/16 A2994 RMK A01 T02470155  RH  057%=      5-min Rain = 0
KVA1 260534Z 12005KT 25/16 A2994 RMK A01 T02460156  RH  057%=      5-min Rain = 0
KVA1 260535Z 12005KT 25/16 A2994 RMK A01 T02460156  RH  057%=      5-min Rain = 0
KVA1 260536Z 11006KT 25/16 A2994 RMK A01 T02450156  RH  058%=      5-min Rain = 0
KVA1 260537Z 10006KT 25/16 A2994 RMK A01 T02450157  RH  058%=      5-min Rain = 0
KVA1 260538Z 11006KT 25/16 A2994 RMK A01 T02450157  RH  058%=      5-min Rain = 0
KVA1 260539Z 11006KT 25/16 A2994 RMK A01 T02450158  RH  058%=      5-min Rain = 0
KVA1 260540Z 11005KT 25/16 A2995 RMK A01 T02450158  RH  058%=      5-min Rain = 0
KVA1 260541Z 12005KT 25/16 A2995 RMK A01 T02460158  RH  058%=      5-min Rain = 0
KVA1 260542Z 14007KT 25/16 A2995 RMK A01 T02470158  RH  058%=      5-min Rain = 0
KVA1 260543Z 13006KT 25/16 A2995 RMK A01 T02470159  RH  058%=      5-min Rain = 0
KVA1 260544Z 07005KT 25/16 A2994 RMK A01 T02470161  RH  059%=      5-min Rain = 0
KVA1 260545Z 07008KT 25/15 A2993 RMK A01 T02470153  RH  056%=      5-min Rain = 0
KVA1 260546Z 04008KT 25/15 A2993 RMK A01 T02500152  RH  054%=      5-min Rain = 0
KVA1 260547Z 04006KT 25/15 A2993 RMK A01 T02520153  RH  054%=      5-min Rain = 0
KVA1 260548Z 07005KT 25/15 A2993 RMK A01 T02530150  RH  053%=      5-min Rain = 0
KVA1 260549Z 09004KT 25/15 A2994 RMK A01 T02540148  RH  052%=      5-min Rain = 0
KVA1 260550Z 08004KT 25/15 A2994 RMK A01 T02540152  RH  053%=      5-min Rain = 0
KVA1 260551Z 07004KT 25/16 A2994 RMK A01 T02540155  RH  054%=      5-min Rain = 0
KVA1 260552Z 05003KT 25/16 A2994 RMK A01 T02530158  RH  055%=      5-min Rain = 0
KVA1 260553Z 04003KT 25/16 A2994 RMK A01 T02520159  RH  056%=      5-min Rain = 0
KVA1 260554Z 02002KT 25/16 A2994 RMK A01 T02510159  RH  057%=      5-min Rain = 0
KVA1 260555Z 34003KT 25/16 A2994 RMK A01 T02500157  RH  056%=      5-min Rain = 0
KVA1 260556Z 33002KT 25/16 A2995 RMK A01 T02490156  RH  056%=      5-min Rain = 0
KVA1 260557Z 35002KT 25/16 A2995 RMK A01 T02480156  RH  057%=      5-min Rain = 0
KVA1 260558Z 33003KT 25/16 A2995 RMK A01 T02470156  RH  057%=      5-min Rain = 0
KVA1 260559Z 31003KT 25/16 A2995 RMK A01 T02460156  RH  057%=      5-min Rain = 0
KVA1 260600Z 32003KT 25/16 A2995 RMK A01 T02460156  RH  057%=      5-min Rain = 0
KVA1 260601Z 32003KT 25/16 A2995 RMK A01 T02450155  RH  057%=      5-min Rain = 0
KVA1 260602Z 32002KT 25/16 A2995 RMK A01 T02450155  RH  057%=      5-min Rain = 0
KVA1 260603Z 32002KT 25/16 A2994 RMK A01 T02450155  RH  057%=      5-min Rain = 0
KVA1 260604Z 33002KT 25/15 A2994 RMK A01 T02450154  RH  057%=      5-min Rain = 0
KVA1 260605Z 33002KT 25/15 A2994 RMK A01 T02450154  RH  057%=      5-min Rain = 0
KVA1 260606Z 35002KT 24/15 A2994 RMK A01 T02440153  RH  057%=      5-min Rain = 0
KVA1 260607Z 00001KT 24/15 A2994 RMK A01 T02440153  RH  057%=      5-min Rain = 0
KVA1 260608Z 01000KT 24/15 A2994 RMK A01 T02440153  RH  057%=      5-min Rain = 0
KVA1 260609Z 10001KT 24/15 A2994 RMK A01 T02430153  RH  057%=      5-min Rain = 0
KVA1 260610Z 02000KT 24/15 A2994 RMK A01 T02430153  RH  057%=      5-min Rain = 0
KVA1 260611Z 04001KT 24/15 A2994 RMK A01 T02440154  RH  057%=      5-min Rain = 0
KVA1 260612Z 04001KT 24/15 A2994 RMK A01 T02440153  RH  057%=      5-min Rain = 0
KVA1 260613Z 02002KT 24/15 A2993 RMK A01 T02440153  RH  057%=      5-min Rain = 0
KVA1 260614Z 01003KT 25/15 A2993 RMK A01 T02450153  RH  056%=      5-min Rain = 0
KVA1 260615Z 00002KT 25/15 A2993 RMK A01 T02450152  RH  056%=      5-min Rain = 0
KVA1 260616Z 01001KT 24/15 A2993 RMK A01 T02440151  RH  056%=      5-min Rain = 0
KVA1 260617Z 01001KT 24/15 A2993 RMK A01 T02430151  RH  057%=      5-min Rain = 0
KVA1 260618Z 01001KT 24/15 A2993 RMK A01 T02430152  RH  057%=      5-min Rain = 0
KVA1 260619Z 01000KT 24/15 A2993 RMK A01 T02430152  RH  057%=      5-min Rain = 0
KVA1 260620Z 15003KT 24/15 A2993 RMK A01 T02420152  RH  057%=      5-min Rain = 0
KVA1 260621Z 16003KT 24/15 A2993 RMK A01 T02420153  RH  057%=      5-min Rain = 0
KVA1 260622Z 20003KT 24/15 A2993 RMK A01 T02430152  RH  057%=      5-min Rain = 0
KVA1 260623Z 21003KT 24/15 A2993 RMK A01 T02430152  RH  057%=      5-min Rain = 0
KVA1 260624Z 21002KT 24/15 A2993 RMK A01 T02430153  RH  057%=      5-min Rain = 0
KVA1 260625Z 23001KT 24/15 A2993 RMK A01 T02430152  RH  057%=      5-min Rain = 0
KVA1 260626Z 24001KT 24/15 A2994 RMK A01 T02430152  RH  057%=      5-min Rain = 0
KVA1 260627Z 25002KT 24/15 A2994 RMK A01 T02420151  RH  057%=      5-min Rain = 0
KVA1 260628Z 28001KT 24/15 A2994 RMK A01 T02410151  RH  057%=      5-min Rain = 0
KVA1 260629Z 28002KT 24/15 A2994 RMK A01 T02400150  RH  057%=      5-min Rain = 0
KVA1 260630Z 27002KT 24/15 A2994 RMK A01 T02390150  RH  057%=      5-min Rain = 0
KVA1 260631Z 23004KT 24/15 A2994 RMK A01 T02380150  RH  058%=      5-min Rain = 0
KVA1 260632Z 24004KT 24/15 A2994 RMK A01 T02370150  RH  058%=      5-min Rain = 0
KVA1 260633Z 26003KT 24/15 A2994 RMK A01 T02360149  RH  058%=      5-min Rain = 0
KVA1 260634Z 26003KT 24/15 A2994 RMK A01 T02360149  RH  058%=      5-min Rain = 0
KVA1 260635Z 24005KT 24/15 A2994 RMK A01 T02350149  RH  058%=      5-min Rain = 0
KVA1 260636Z 22004KT 24/15 A2994 RMK A01 T02380147  RH  057%=      5-min Rain = 0
KVA1 260637Z 21004KT 24/15 A2994 RMK A01 T02410149  RH  056%=      5-min Rain = 0
KVA1 260638Z 21004KT 24/15 A2994 RMK A01 T02430149  RH  056%=      5-min Rain = 0
KVA1 260639Z 22004KT 24/15 A2994 RMK A01 T02430148  RH  055%=      5-min Rain = 0
KVA1 260640Z 24004KT 24/15 A2994 RMK A01 T02440147  RH  055%=      5-min Rain = 0
KVA1 260641Z 25003KT 24/15 A2994 RMK A01 T02440147  RH  055%=      5-min Rain = 0
KVA1 260642Z 24003KT 24/15 A2994 RMK A01 T02440148  RH  055%=      5-min Rain = 0
KVA1 260643Z 22003KT 24/15 A2994 RMK A01 T02430148  RH  055%=      5-min Rain = 0
KVA1 260644Z 20003KT 24/15 A2994 RMK A01 T02410148  RH  056%=      5-min Rain = 0
KVA1 260645Z 18003KT 24/15 A2994 RMK A01 T02410148  RH  056%=      5-min Rain = 0
KVA1 260646Z 19003KT 24/15 A2994 RMK A01 T02410147  RH  056%=      5-min Rain = 0
KVA1 260647Z 15003KT 24/15 A2994 RMK A01 T02410146  RH  055%=      5-min Rain = 0
KVA1 260648Z 16003KT 24/15 A2994 RMK A01 T02400146  RH  055%=      5-min Rain = 0
KVA1 260649Z 17003KT 24/15 A2994 RMK A01 T02400146  RH  056%=      5-min Rain = 0
KVA1 260650Z 19004KT 24/15 A2994 RMK A01 T02390146  RH  056%=      5-min Rain = 0
KVA1 260651Z 19004KT 24/15 A2994 RMK A01 T02390146  RH  056%=      5-min Rain = 0
KVA1 260652Z 19004KT 24/15 A2994 RMK A01 T02400146  RH  056%=      5-min Rain = 0
KVA1 260653Z 19004KT 24/15 A2994 RMK A01 T02400146  RH  055%=      5-min Rain = 0
KVA1 260654Z 18004KT 24/15 A2994 RMK A01 T02410146  RH  055%=      5-min Rain = 0
KVA1 260655Z 17004KT 24/15 A2994 RMK A01 T02410146  RH  055%=      5-min Rain = 0
KVA1 260656Z 16004KT 24/15 A2994 RMK A01 T02410145  RH  055%=      5-min Rain = 0
KVA1 260657Z 16004KT 24/15 A2994 RMK A01 T02400146  RH  056%=      5-min Rain = 0
KVA1 260658Z 15004KT 24/15 A2994 RMK A01 T02390146  RH  056%=      5-min Rain = 0
KVA1 260659Z 15005KT 24/15 A2994 RMK A01 T02380147  RH  056%=      5-min Rain = 0
KVA1 260700Z 15004KT 24/15 A2994 RMK A01 T02380148  RH  057%=      5-min Rain = 0
KVA1 260701Z 15003KT 24/15 A2994 RMK A01 T02380148  RH  057%=      5-min Rain = 0
KVA1 260702Z 16004KT 24/15 A2994 RMK A01 T02380147  RH  057%=      5-min Rain = 0
KVA1 260703Z 16005KT 24/15 A2994 RMK A01 T02380149  RH  057%=      5-min Rain = 0
KVA1 260704Z 14005KT 24/15 A2994 RMK A01 T02390149  RH  057%=      5-min Rain = 0
KVA1 260705Z 15005KT 24/15 A2994 RMK A01 T02390149  RH  057%=      5-min Rain = 0
KVA1 260706Z 14004KT 24/15 A2994 RMK A01 T02390149  RH  057%=      5-min Rain = 0
KVA1 260707Z 14005KT 24/15 A2994 RMK A01 T02390150  RH  057%=      5-min Rain = 0
KVA1 260708Z 13005KT 24/15 A2994 RMK A01 T02390150  RH  057%=      5-min Rain = 0
KVA1 260709Z 14005KT 24/15 A2994 RMK A01 T02380149  RH  057%=      5-min Rain = 0
KVA1 260710Z 15005KT 24/15 A2994 RMK A01 T02380149  RH  057%=      5-min Rain = 0
KVA1 260711Z 15005KT 24/15 A2994 RMK A01 T02380148  RH  057%=      5-min Rain = 0
KVA1 260712Z 15003KT 24/15 A2994 RMK A01 T02380148  RH  057%=      5-min Rain = 0
KVA1 260713Z 16006KT 24/15 A2994 RMK A01 T02380148  RH  057%=      5-min Rain = 0
KVA1 260714Z 15006KT 24/15 A2994 RMK A01 T02390149  RH  057%=      5-min Rain = 0
KVA1 260715Z 13004KT 24/15 A2994 RMK A01 T02400149  RH  056%=      5-min Rain = 0
KVA1 260716Z 14005KT 24/15 A2994 RMK A01 T02410148  RH  056%=      5-min Rain = 0
KVA1 260717Z 13004KT 24/15 A2994 RMK A01 T02410148  RH  056%=      5-min Rain = 0
KVA1 260718Z 13004KT 24/15 A2994 RMK A01 T02410148  RH  056%=      5-min Rain = 0
KVA1 260719Z 12003KT 24/15 A2994 RMK A01 T02400148  RH  056%=      5-min Rain = 0
KVA1 260720Z 12004KT 24/15 A2994 RMK A01 T02410148  RH  056%=      5-min Rain = 0
KVA1 260721Z 10003KT 24/15 A2994 RMK A01 T02410147  RH  056%=      5-min Rain = 0
KVA1 260722Z 13002KT 24/15 A2994 RMK A01 T02410148  RH  056%=      5-min Rain = 0
KVA1 260723Z 14003KT 24/15 A2994 RMK A01 T02410148  RH  056%=      5-min Rain = 0
KVA1 260724Z 14004KT 24/15 A2994 RMK A01 T02410148  RH  056%=      5-min Rain = 0
KVA1 260725Z 15004KT 24/15 A2994 RMK A01 T02420148  RH  056%=      5-min Rain = 0
KVA1 260726Z 15003KT 24/15 A2994 RMK A01 T02420149  RH  056%=      5-min Rain = 0
KVA1 260727Z 15003KT 24/15 A2994 RMK A01 T02430149  RH  056%=      5-min Rain = 0
KVA1 260728Z 14003KT 24/15 A2994 RMK A01 T02430149  RH  056%=      5-min Rain = 0
KVA1 260729Z 15003KT 24/15 A2994 RMK A01 T02430149  RH  056%=      5-min Rain = 0
KVA1 260730Z 15004KT 24/15 A2994 RMK A01 T02430149  RH  056%=      5-min Rain = 0
KVA1 260731Z 13002KT 24/15 A2994 RMK A01 T02430149  RH  056%=      5-min Rain = 0
KVA1 260732Z 08001KT 24/15 A2994 RMK A01 T02430149  RH  056%=      5-min Rain = 0
KVA1 260733Z 09001KT 24/15 A2994 RMK A01 T02430149  RH  056%=      5-min Rain = 0
KVA1 260734Z 12001KT 24/15 A2994 RMK A01 T02430150  RH  056%=      5-min Rain = 0
KVA1 260735Z 00000KT 24/15 A2994 RMK A01 T02430150  RH  056%=      5-min Rain = 0
KVA1 260736Z 00000KT 24/15 A2994 RMK A01 T02430150  RH  056%=      5-min Rain = 0
KVA1 260737Z 16000KT 24/15 A2995 RMK A01 T02430150  RH  056%=      5-min Rain = 0
KVA1 260738Z 18001KT 24/15 A2995 RMK A01 T02420149  RH  056%=      5-min Rain = 0
KVA1 260739Z 19000KT 24/15 A2995 RMK A01 T02420152  RH  057%=      5-min Rain = 0
KVA1 260740Z 32001KT 24/15 A2994 RMK A01 T02420153  RH  057%=      5-min Rain = 0
KVA1 260741Z 00002KT 24/15 A2994 RMK A01 T02430150  RH  056%=      5-min Rain = 0
KVA1 260742Z 03001KT 24/15 A2994 RMK A01 T02430148  RH  055%=      5-min Rain = 0
KVA1 260743Z 03002KT 24/15 A2994 RMK A01 T02420149  RH  056%=      5-min Rain = 0
KVA1 260744Z 12003KT 24/15 A2994 RMK A01 T02420151  RH  057%=      5-min Rain = 0
KVA1 260745Z 16005KT 24/15 A2994 RMK A01 T02420152  RH  057%=      5-min Rain = 0
KVA1 260746Z 13005KT 24/15 A2994 RMK A01 T02420154  RH  058%=      5-min Rain = 0
KVA1 260747Z 10003KT 24/15 A2994 RMK A01 T02420154  RH  058%=      5-min Rain = 0
KVA1 260748Z 14005KT 24/15 A2994 RMK A01 T02420153  RH  058%=      5-min Rain = 0
KVA1 260749Z 14005KT 24/16 A2994 RMK A01 T02430156  RH  058%=      5-min Rain = 0
KVA1 260750Z 15005KT 24/16 A2994 RMK A01 T02430157  RH  059%=      5-min Rain = 0
KVA1 260751Z 16006KT 24/16 A2994 RMK A01 T02430158  RH  059%=      5-min Rain = 0
KVA1 260752Z 16007KT 24/16 A2994 RMK A01 T02420158  RH  059%=      5-min Rain = 0
KVA1 260753Z 16006KT 24/16 A2994 RMK A01 T02420158  RH  059%=      5-min Rain = 0
KVA1 260754Z 17007KT 24/16 A2994 RMK A01 T02410157  RH  059%=      5-min Rain = 0
KVA1 260755Z 17010KT 24/16 A2994 RMK A01 T02410158  RH  060%=      5-min Rain = 0
KVA1 260756Z 18009KT 24/16 A2994 RMK A01 T02420158  RH  059%=      5-min Rain = 0
KVA1 260757Z 18009KT 24/16 A2994 RMK A01 T02420158  RH  059%=      5-min Rain = 0
KVA1 260758Z 18009KT 24/16 A2994 RMK A01 T02420158  RH  059%=      5-min Rain = 0
KVA1 260759Z 18007KT 24/16 A2994 RMK A01 T02420158  RH  059%=      5-min Rain = 0
KVA1 260800Z 19007KT 24/16 A2994 RMK A01 T02420158  RH  059%=      5-min Rain = 0
KVA1 260801Z 18007KT 24/16 A2994 RMK A01 T02420158  RH  060%=      5-min Rain = 0
KVA1 260802Z 18006KT 24/16 A2994 RMK A01 T02410158  RH  060%=      5-min Rain = 0
KVA1 260803Z 18006KT 24/16 A2994 RMK A01 T02410158  RH  060%=      5-min Rain = 0
KVA1 260804Z 18006KT 24/16 A2994 RMK A01 T02410158  RH  060%=      5-min Rain = 0
KVA1 260805Z 19007KT 24/16 A2994 RMK A01 T02400158  RH  060%=      5-min Rain = 0
KVA1 260806Z 20007KT 24/16 A2994 RMK A01 T02410158  RH  060%=      5-min Rain = 0
KVA1 260807Z 19006KT 24/16 A2994 RMK A01 T02400158  RH  060%=      5-min Rain = 0
KVA1 260808Z 19006KT 24/16 A2994 RMK A01 T02400158  RH  060%=      5-min Rain = 0
KVA1 260809Z 19005KT 24/16 A2994 RMK A01 T02400158  RH  060%=      5-min Rain = 0
KVA1 260810Z 19006KT 24/16 A2994 RMK A01 T02400158  RH  060%=      5-min Rain = 0
KVA1 260811Z 19007KT 24/16 A2994 RMK A01 T02390158  RH  060%=      5-min Rain = 0
KVA1 260812Z 19006KT 24/16 A2994 RMK A01 T02390158  RH  061%=      5-min Rain = 0
KVA1 260813Z 20007KT 24/16 A2994 RMK A01 T02390158  RH  060%=      5-min Rain = 0
KVA1 260814Z 20007KT 24/16 A2994 RMK A01 T02390158  RH  061%=      5-min Rain = 0
KVA1 260815Z 20006KT 24/16 A2994 RMK A01 T02380157  RH  061%=      5-min Rain = 0
KVA1 260816Z 21006KT 24/16 A2994 RMK A01 T02370158  RH  061%=      5-min Rain = 0
KVA1 260817Z 21007KT 24/16 A2994 RMK A01 T02370158  RH  061%=      5-min Rain = 0
KVA1 260818Z 22006KT 24/16 A2994 RMK A01 T02370158  RH  061%=      5-min Rain = 0
KVA1 260819Z 23005KT 24/16 A2994 RMK A01 T02370158  RH  061%=      5-min Rain = 0
KVA1 260820Z 22005KT 24/16 A2994 RMK A01 T02360157  RH  062%=      5-min Rain = 0
KVA1 260821Z 21005KT 24/16 A2994 RMK A01 T02350158  RH  062%=      5-min Rain = 0
KVA1 260822Z 20006KT 24/16 A2994 RMK A01 T02350158  RH  062%=      5-min Rain = 0
KVA1 260823Z 20005KT 24/16 A2994 RMK A01 T02350158  RH  062%=      5-min Rain = 0
KVA1 260824Z 20005KT 24/16 A2994 RMK A01 T02350158  RH  062%=      5-min Rain = 0
KVA1 260825Z 21005KT 24/16 A2994 RMK A01 T02350158  RH  062%=      5-min Rain = 0
KVA1 260826Z 20005KT 23/16 A2994 RMK A01 T02340158  RH  062%=      5-min Rain = 0
KVA1 260827Z 21004KT 23/16 A2994 RMK A01 T02340158  RH  062%=      5-min Rain = 0
KVA1 260828Z 21004KT 23/16 A2994 RMK A01 T02340157  RH  062%=      5-min Rain = 0
KVA1 260829Z 21003KT 23/16 A2994 RMK A01 T02330157  RH  062%=      5-min Rain = 0
KVA1 260830Z 21003KT 23/16 A2994 RMK A01 T02310157  RH  063%=      5-min Rain = 0
KVA1 260831Z 21002KT 23/16 A2994 RMK A01 T02310157  RH  063%=      5-min Rain = 0
KVA1 260832Z 22003KT 23/16 A2994 RMK A01 T02300157  RH  063%=      5-min Rain = 0
KVA1 260833Z 21002KT 23/16 A2994 RMK A01 T02290157  RH  064%=      5-min Rain = 0
KVA1 260834Z 21003KT 23/16 A2994 RMK A01 T02290157  RH  064%=      5-min Rain = 0
KVA1 260835Z 20003KT 23/16 A2994 RMK A01 T02290158  RH  064%=      5-min Rain = 0
KVA1 260836Z 21002KT 23/16 A2994 RMK A01 T02300157  RH  064%=      5-min Rain = 0
KVA1 260837Z 21002KT 23/16 A2994 RMK A01 T02300157  RH  064%=      5-min Rain = 0
KVA1 260838Z 19002KT 23/16 A2994 RMK A01 T02300157  RH  064%=      5-min Rain = 0
KVA1 260839Z 19002KT 23/16 A2994 RMK A01 T02290157  RH  064%=      5-min Rain = 0
KVA1 260840Z 19002KT 23/16 A2994 RMK A01 T02290157  RH  064%=      5-min Rain = 0
KVA1 260841Z 18004KT 23/16 A2993 RMK A01 T02290157  RH  064%=      5-min Rain = 0
KVA1 260842Z 17004KT 23/16 A2993 RMK A01 T02280157  RH  064%=      5-min Rain = 0
KVA1 260843Z 18002KT 23/16 A2993 RMK A01 T02280157  RH  064%=      5-min Rain = 0
KVA1 260844Z 17003KT 23/16 A2993 RMK A01 T02280157  RH  064%=      5-min Rain = 0
KVA1 260845Z 19003KT 23/16 A2993 RMK A01 T02280157  RH  064%=      5-min Rain = 0
KVA1 260846Z 23001KT 23/16 A2994 RMK A01 T02280157  RH  064%=      5-min Rain = 0
KVA1 260847Z 21001KT 23/16 A2994 RMK A01 T02270157  RH  064%=      5-min Rain = 0
KVA1 260848Z 25001KT 23/16 A2994 RMK A01 T02260156  RH  065%=      5-min Rain = 0
KVA1 260849Z 25001KT 23/16 A2994 RMK A01 T02260156  RH  065%=      5-min Rain = 0
KVA1 260850Z 23001KT 22/16 A2994 RMK A01 T02240155  RH  065%=      5-min Rain = 0
KVA1 260851Z 24002KT 22/16 A2994 RMK A01 T02240156  RH  065%=      5-min Rain = 0
KVA1 260852Z 22002KT 22/16 A2994 RMK A01 T02230155  RH  065%=      5-min Rain = 0
KVA1 260853Z 24001KT 22/16 A2994 RMK A01 T02230156  RH  066%=      5-min Rain = 0
KVA1 260854Z 24002KT 22/16 A2994 RMK A01 T02230155  RH  066%=      5-min Rain = 0
KVA1 260855Z 26001KT 22/16 A2994 RMK A01 T02220155  RH  066%=      5-min Rain = 0
KVA1 260856Z 26002KT 22/16 A2994 RMK A01 T02210155  RH  066%=      5-min Rain = 0
KVA1 260857Z 26002KT 22/16 A2994 RMK A01 T02200155  RH  066%=      5-min Rain = 0
KVA1 260858Z 25002KT 22/16 A2994 RMK A01 T02200155  RH  066%=      5-min Rain = 0
KVA1 260859Z 26002KT 22/15 A2994 RMK A01 T02190154  RH  066%=      5-min Rain = 0
KVA1 260900Z 26002KT 22/15 A2994 RMK A01 T02180153  RH  067%=      5-min Rain = 0
KVA1 260901Z 22004KT 22/15 A2994 RMK A01 T02180154  RH  067%=      5-min Rain = 0
KVA1 260902Z 26001KT 22/16 A2994 RMK A01 T02180155  RH  067%=      5-min Rain = 0
KVA1 260903Z 25002KT 22/16 A2994 RMK A01 T02180155  RH  067%=      5-min Rain = 0
KVA1 260904Z 25002KT 22/16 A2994 RMK A01 T02180155  RH  067%=      5-min Rain = 0
KVA1 260905Z 26003KT 22/15 A2994 RMK A01 T02180154  RH  067%=      5-min Rain = 0
KVA1 260906Z 26002KT 22/16 A2994 RMK A01 T02180155  RH  067%=      5-min Rain = 0
KVA1 260907Z 26002KT 22/15 A2994 RMK A01 T02180154  RH  067%=      5-min Rain = 0
KVA1 260908Z 26002KT 22/15 A2994 RMK A01 T02170154  RH  067%=      5-min Rain = 0
KVA1 260909Z 25002KT 22/15 A2994 RMK A01 T02170153  RH  067%=      5-min Rain = 0
KVA1 260910Z 23003KT 22/15 A2994 RMK A01 T02160153  RH  067%=      5-min Rain = 0
KVA1 260911Z 25003KT 22/15 A2994 RMK A01 T02160154  RH  068%=      5-min Rain = 0
KVA1 260912Z 24004KT 22/15 A2994 RMK A01 T02160154  RH  068%=      5-min Rain = 0
KVA1 260913Z 23003KT 22/15 A2994 RMK A01 T02160154  RH  068%=      5-min Rain = 0
KVA1 260914Z 22004KT 22/15 A2994 RMK A01 T02160154  RH  068%=      5-min Rain = 0
KVA1 260915Z 22004KT 22/15 A2994 RMK A01 T02170154  RH  068%=      5-min Rain = 0
KVA1 260916Z 21004KT 22/16 A2994 RMK A01 T02170155  RH  068%=      5-min Rain = 0
KVA1 260917Z 21004KT 22/16 A2994 RMK A01 T02180155  RH  067%=      5-min Rain = 0
KVA1 260918Z 20006KT 22/16 A2994 RMK A01 T02190155  RH  067%=      5-min Rain = 0
KVA1 260919Z 21005KT 22/16 A2994 RMK A01 T02210156  RH  066%=      5-min Rain = 0
KVA1 260920Z 20005KT 22/16 A2994 RMK A01 T02210155  RH  066%=      5-min Rain = 0
KVA1 260921Z 20005KT 22/16 A2994 RMK A01 T02210155  RH  066%=      5-min Rain = 0
KVA1 260922Z 21006KT 22/16 A2994 RMK A01 T02220155  RH  066%=      5-min Rain = 0
KVA1 260923Z 21005KT 22/15 A2994 RMK A01 T02220154  RH  065%=      5-min Rain = 0
KVA1 260924Z 20007KT 22/16 A2994 RMK A01 T02230155  RH  065%=      5-min Rain = 0
KVA1 260925Z 20006KT 22/15 A2994 RMK A01 T02230154  RH  065%=      5-min Rain = 0
KVA1 260926Z 20006KT 22/15 A2994 RMK A01 T02230154  RH  065%=      5-min Rain = 0
KVA1 260927Z 20006KT 22/15 A2994 RMK A01 T02230154  RH  065%=      5-min Rain = 0
KVA1 260928Z 20007KT 22/15 A2994 RMK A01 T02230154  RH  065%=      5-min Rain = 0
KVA1 260929Z 20007KT 22/15 A2994 RMK A01 T02230154  RH  065%=      5-min Rain = 0
KVA1 260930Z 20008KT 22/15 A2994 RMK A01 T02230154  RH  065%=      5-min Rain = 0
KVA1 260931Z 20007KT 22/15 A2994 RMK A01 T02230154  RH  065%=      5-min Rain = 0
KVA1 260932Z 20007KT 22/15 A2994 RMK A01 T02240154  RH  065%=      5-min Rain = 0
KVA1 260933Z 20008KT 22/15 A2994 RMK A01 T02240154  RH  065%=      5-min Rain = 0
KVA1 260934Z 20007KT 22/15 A2994 RMK A01 T02240154  RH  065%=      5-min Rain = 0
KVA1 260935Z 20007KT 22/15 A2994 RMK A01 T02240154  RH  065%=      5-min Rain = 0
KVA1 260936Z 21007KT 22/16 A2994 RMK A01 T02240155  RH  065%=      5-min Rain = 0
KVA1 260937Z 20008KT 22/15 A2994 RMK A01 T02240154  RH  065%=      5-min Rain = 0
KVA1 260938Z 20007KT 22/15 A2994 RMK A01 T02230154  RH  065%=      5-min Rain = 0
KVA1 260939Z 21007KT 22/15 A2994 RMK A01 T02230154  RH  065%=      5-min Rain = 0
KVA1 260940Z 20007KT 22/15 A2994 RMK A01 T02230154  RH  065%=      5-min Rain = 0
KVA1 260941Z 21007KT 22/15 A2994 RMK A01 T02230154  RH  065%=      5-min Rain = 0
KVA1 260942Z 20008KT 22/15 A2994 RMK A01 T02230154  RH  065%=      5-min Rain = 0
KVA1 260943Z 20008KT 22/15 A2994 RMK A01 T02230154  RH  065%=      5-min Rain = 0
KVA1 260944Z 20008KT 22/15 A2994 RMK A01 T02220154  RH  065%=      5-min Rain = 0
KVA1 260945Z 20007KT 22/15 A2994 RMK A01 T02220154  RH  065%=      5-min Rain = 0
KVA1 260946Z 20008KT 22/15 A2994 RMK A01 T02220154  RH  065%=      5-min Rain = 0
KVA1 260947Z 20008KT 22/15 A2994 RMK A01 T02220153  RH  065%=      5-min Rain = 0
KVA1 260948Z 20007KT 22/15 A2994 RMK A01 T02220154  RH  065%=      5-min Rain = 0
KVA1 260949Z 20008KT 22/15 A2994 RMK A01 T02220154  RH  065%=      5-min Rain = 0
KVA1 260950Z 20009KT 22/15 A2994 RMK A01 T02220153  RH  065%=      5-min Rain = 0
KVA1 260951Z 20008KT 22/15 A2994 RMK A01 T02210153  RH  065%=      5-min Rain = 0
KVA1 260952Z 20008KT 22/15 A2994 RMK A01 T02210153  RH  065%=      5-min Rain = 0
KVA1 260953Z 20008KT 22/15 A2994 RMK A01 T02210154  RH  065%=      5-min Rain = 0
KVA1 260954Z 20009KT 22/15 A2994 RMK A01 T02210153  RH  066%=      5-min Rain = 0
KVA1 260955Z 20008KT 22/15 A2994 RMK A01 T02200153  RH  066%=      5-min Rain = 0
KVA1 260956Z 20009KT 22/15 A2994 RMK A01 T02210153  RH  066%=      5-min Rain = 0
KVA1 260957Z 21008KT 22/15 A2994 RMK A01 T02200153  RH  065%=      5-min Rain = 0
KVA1 260958Z 20009KT 22/15 A2994 RMK A01 T02210153  RH  065%=      5-min Rain = 0
KVA1 260959Z 20009KT 22/15 A2994 RMK A01 T02210153  RH  065%=      5-min Rain = 0
KVA1 261000Z 20009KT 22/15 A2994 RMK A01 T02210153  RH  065%=      5-min Rain = 0
KVA1 261001Z 20008KT 22/15 A2994 RMK A01 T02210153  RH  065%=      5-min Rain = 0
KVA1 261002Z 20009KT 22/15 A2994 RMK A01 T02210153  RH  065%=      5-min Rain = 0
KVA1 261003Z 20009KT 22/15 A2994 RMK A01 T02210153  RH  065%=      5-min Rain = 0
KVA1 261004Z 20009KT 22/15 A2994 RMK A01 T02210153  RH  065%=      5-min Rain = 0
KVA1 261005Z 20009KT 22/15 A2994 RMK A01 T02210153  RH  065%=      5-min Rain = 0
KVA1 261006Z 20010KT 22/15 A2994 RMK A01 T02210153  RH  065%=      5-min Rain = 0
KVA1 261007Z 20010KT 22/15 A2995 RMK A01 T02210153  RH  065%=      5-min Rain = 0
KVA1 261008Z 19010KT 22/15 A2995 RMK A01 T02210153  RH  065%=      5-min Rain = 0
KVA1 261009Z 20009KT 22/15 A2995 RMK A01 T02210153  RH  065%=      5-min Rain = 0
KVA1 261010Z 20011KT 22/15 A2995 RMK A01 T02210153  RH  065%=      5-min Rain = 0
KVA1 261011Z 20008KT 22/15 A2995 RMK A01 T02210153  RH  065%=      5-min Rain = 0
KVA1 261012Z 20010KT 22/15 A2995 RMK A01 T02210153  RH  065%=      5-min Rain = 0
KVA1 261013Z 20010KT 22/15 A2995 RMK A01 T02210153  RH  065%=      5-min Rain = 0
KVA1 261014Z 20010KT 22/15 A2995 RMK A01 T02210153  RH  065%=      5-min Rain = 0
KVA1 261015Z 19010KT 22/15 A2995 RMK A01 T02210153  RH  065%=      5-min Rain = 0
KVA1 261016Z 20010KT 22/15 A2995 RMK A01 T02210153  RH  065%=      5-min Rain = 0
KVA1 261017Z 20009KT 22/15 A2995 RMK A01 T02210153  RH  065%=      5-min Rain = 0
KVA1 261018Z 20010KT 22/15 A2995 RMK A01 T02210153  RH  065%=      5-min Rain = 0
KVA1 261019Z 20009KT 22/15 A2995 RMK A01 T02210153  RH  065%=      5-min Rain = 0
KVA1 261020Z 20010KT 22/15 A2995 RMK A01 T02210153  RH  065%=      5-min Rain = 0
KVA1 261021Z 20009KT 22/15 A2995 RMK A01 T02210153  RH  065%=      5-min Rain = 0
KVA1 261022Z 20010KT 22/15 A2995 RMK A01 T02200153  RH  065%=      5-min Rain = 0
KVA1 261023Z 20010KT 22/15 A2995 RMK A01 T02200153  RH  065%=      5-min Rain = 0
KVA1 261024Z 20010KT 22/15 A2995 RMK A01 T02200153  RH  065%=      5-min Rain = 0
KVA1 261025Z 19010KT 22/15 A2995 RMK A01 T02200153  RH  066%=      5-min Rain = 0
KVA1 261026Z 19011KT 22/15 A2995 RMK A01 T02200153  RH  066%=      5-min Rain = 0
KVA1 261027Z 20010KT 22/15 A2995 RMK A01 T02200153  RH  066%=      5-min Rain = 0
KVA1 261028Z 19012KT 22/15 A2995 RMK A01 T02200153  RH  066%=      5-min Rain = 0
KVA1 261029Z 20011KT 22/15 A2995 RMK A01 T02200153  RH  066%=      5-min Rain = 0
KVA1 261030Z 20011KT 22/15 A2995 RMK A01 T02200153  RH  066%=      5-min Rain = 0
KVA1 261031Z 20009KT 22/15 A2995 RMK A01 T02200153  RH  066%=      5-min Rain = 0
KVA1 261032Z 20009KT 22/15 A2995 RMK A01 T02200153  RH  066%=      5-min Rain = 0
KVA1 261033Z 19010KT 22/15 A2995 RMK A01 T02190153  RH  066%=      5-min Rain = 0
KVA1 261034Z 19010KT 22/15 A2995 RMK A01 T02190153  RH  066%=      5-min Rain = 0
KVA1 261035Z 20010KT 22/15 A2995 RMK A01 T02190153  RH  066%=      5-min Rain = 0
KVA1 261036Z 20010KT 22/15 A2995 RMK A01 T02190153  RH  066%=      5-min Rain = 0
KVA1 261037Z 19012KT 22/15 A2995 RMK A01 T02180152  RH  066%=      5-min Rain = 0
KVA1 261038Z 19011KT 22/15 A2995 RMK A01 T02190153  RH  066%=      5-min Rain = 0
KVA1 261039Z 20010KT 22/15 A2995 RMK A01 T02190153  RH  066%=      5-min Rain = 0
KVA1 261040Z 20010KT 22/15 A2995 RMK A01 T02180152  RH  066%=      5-min Rain = 0
KVA1 261041Z 20010KT 22/15 A2995 RMK A01 T02180153  RH  066%=      5-min Rain = 0
KVA1 261042Z 20010KT 22/15 A2995 RMK A01 T02180153  RH  066%=      5-min Rain = 0
KVA1 261043Z 20011KT 22/15 A2995 RMK A01 T02180153  RH  066%=      5-min Rain = 0
KVA1 261044Z 20009KT 22/15 A2995 RMK A01 T02180153  RH  067%=      5-min Rain = 0
KVA1 261045Z 20011KT 22/15 A2995 RMK A01 T02180152  RH  066%=      5-min Rain = 0
KVA1 261046Z 20011KT 22/15 A2995 RMK A01 T02180152  RH  066%=      5-min Rain = 0
KVA1 261047Z 20011KT 22/15 A2995 RMK A01 T02180153  RH  067%=      5-min Rain = 0
KVA1 261048Z 20010KT 22/15 A2995 RMK A01 T02170152  RH  067%=      5-min Rain = 0
KVA1 261049Z 20009KT 22/15 A2995 RMK A01 T02170153  RH  067%=      5-min Rain = 0
KVA1 261050Z 20010KT 22/15 A2995 RMK A01 T02170153  RH  067%=      5-min Rain = 0
KVA1 261051Z 20010KT 22/15 A2995 RMK A01 T02170153  RH  067%=      5-min Rain = 0
KVA1 261052Z 20010KT 22/15 A2995 RMK A01 T02160153  RH  067%=      5-min Rain = 0
KVA1 261053Z 20011KT 22/15 A2995 RMK A01 T02160152  RH  067%=      5-min Rain = 0
KVA1 261054Z 20009KT 22/15 A2995 RMK A01 T02160153  RH  067%=      5-min Rain = 0
KVA1 261055Z 20010KT 22/15 A2995 RMK A01 T02150152  RH  067%=      5-min Rain = 0
KVA1 261056Z 21009KT 22/15 A2995 RMK A01 T02150152  RH  067%=      5-min Rain = 0
KVA1 261057Z 20009KT 21/15 A2995 RMK A01 T02140152  RH  068%=      5-min Rain = 0
KVA1 261058Z 21008KT 21/15 A2995 RMK A01 T02140152  RH  068%=      5-min Rain = 0
KVA1 261059Z 21008KT 21/15 A2995 RMK A01 T02130152  RH  068%=      5-min Rain = 0
KVA1 261100Z 21008KT 21/15 A2995 RMK A01 T02130152  RH  068%=      5-min Rain = 0
KVA1 261101Z 21008KT 21/15 A2995 RMK A01 T02120151  RH  068%=      5-min Rain = 0
KVA1 261102Z 21008KT 21/15 A2995 RMK A01 T02120151  RH  068%=      5-min Rain = 0
KVA1 261103Z 21007KT 21/15 A2995 RMK A01 T02110151  RH  069%=      5-min Rain = 0
KVA1 261104Z 20009KT 21/15 A2995 RMK A01 T02110151  RH  069%=      5-min Rain = 0
KVA1 261105Z 21010KT 21/15 A2995 RMK A01 T02110152  RH  069%=      5-min Rain = 0
KVA1 261106Z 21008KT 21/15 A2995 RMK A01 T02110151  RH  069%=      5-min Rain = 0
KVA1 261107Z 21008KT 21/15 A2995 RMK A01 T02110151  RH  069%=      5-min Rain = 0
KVA1 261108Z 21008KT 21/15 A2995 RMK A01 T02100150  RH  069%=      5-min Rain = 0
KVA1 261109Z 21007KT 21/15 A2995 RMK A01 T02090150  RH  069%=      5-min Rain = 0
KVA1 261110Z 21008KT 21/15 A2995 RMK A01 T02090151  RH  069%=      5-min Rain = 0
KVA1 261111Z 21009KT 21/15 A2995 RMK A01 T02090151  RH  069%=      5-min Rain = 0
KVA1 261112Z 22009KT 21/15 A2995 RMK A01 T02090151  RH  070%=      5-min Rain = 0
KVA1 261113Z 22008KT 21/15 A2995 RMK A01 T02080151  RH  070%=      5-min Rain = 0
KVA1 261114Z 22007KT 21/15 A2995 RMK A01 T02080151  RH  070%=      5-min Rain = 0
KVA1 261115Z 22006KT 21/15 A2995 RMK A01 T02070150  RH  070%=      5-min Rain = 0
KVA1 261116Z 22005KT 21/15 A2995 RMK A01 T02060150  RH  070%=      5-min Rain = 0
KVA1 261117Z 22006KT 21/15 A2996 RMK A01 T02050149  RH  070%=      5-min Rain = 0
KVA1 261118Z 22006KT 20/15 A2996 RMK A01 T02040150  RH  071%=      5-min Rain = 0
KVA1 261119Z 22007KT 20/15 A2995 RMK A01 T02040150  RH  071%=      5-min Rain = 0
KVA1 261120Z 22007KT 20/15 A2996 RMK A01 T02040150  RH  071%=      5-min Rain = 0
KVA1 261121Z 22007KT 20/15 A2996 RMK A01 T02040150  RH  071%=      5-min Rain = 0
KVA1 261122Z 23006KT 20/15 A2996 RMK A01 T02040149  RH  071%=      5-min Rain = 0
KVA1 261123Z 23007KT 20/15 A2996 RMK A01 T02030148  RH  071%=      5-min Rain = 0
KVA1 261124Z 23006KT 20/15 A2996 RMK A01 T02020148  RH  071%=      5-min Rain = 0
KVA1 261125Z 23006KT 20/15 A2996 RMK A01 T02020148  RH  071%=      5-min Rain = 0
KVA1 261126Z 23007KT 20/15 A2996 RMK A01 T02010148  RH  072%=      5-min Rain = 0
KVA1 261127Z 23007KT 20/15 A2996 RMK A01 T02010149  RH  072%=      5-min Rain = 0
KVA1 261128Z 22007KT 20/15 A2996 RMK A01 T02010149  RH  072%=      5-min Rain = 0
KVA1 261129Z 22008KT 20/15 A2996 RMK A01 T02010149  RH  072%=      5-min Rain = 0
KVA1 261130Z 22008KT 20/15 A2996 RMK A01 T02010149  RH  072%=      5-min Rain = 0
KVA1 261131Z 21009KT 20/15 A2996 RMK A01 T02010149  RH  072%=      5-min Rain = 0
KVA1 261132Z 21008KT 20/15 A2996 RMK A01 T02010149  RH  072%=      5-min Rain = 0
KVA1 261133Z 21010KT 20/15 A2996 RMK A01 T02010149  RH  072%=      5-min Rain = 0
KVA1 261134Z 21009KT 20/15 A2996 RMK A01 T02020149  RH  072%=      5-min Rain = 0
KVA1 261135Z 22008KT 20/15 A2996 RMK A01 T02030149  RH  071%=      5-min Rain = 0
KVA1 261136Z 22009KT 20/15 A2996 RMK A01 T02030149  RH  071%=      5-min Rain = 0
KVA1 261137Z 22008KT 20/15 A2996 RMK A01 T02020149  RH  071%=      5-min Rain = 0
KVA1 261138Z 21007KT 20/15 A2996 RMK A01 T02020149  RH  071%=      5-min Rain = 0
KVA1 261139Z 22008KT 20/15 A2996 RMK A01 T02010148  RH  072%=      5-min Rain = 0
KVA1 261140Z 21008KT 20/15 A2996 RMK A01 T02010149  RH  072%=      5-min Rain = 0
KVA1 261141Z 21008KT 20/15 A2996 RMK A01 T02010149  RH  072%=      5-min Rain = 0
KVA1 261142Z 21009KT 20/15 A2996 RMK A01 T02010149  RH  072%=      5-min Rain = 0
KVA1 261143Z 21009KT 20/15 A2996 RMK A01 T02010149  RH  072%=      5-min Rain = 0
KVA1 261144Z 21011KT 20/15 A2996 RMK A01 T02010149  RH  072%=      5-min Rain = 0
KVA1 261145Z 20011KT 20/15 A2996 RMK A01 T02030151  RH  072%=      5-min Rain = 0
KVA1 261146Z 21011KT 20/15 A2996 RMK A01 T02040151  RH  072%=      5-min Rain = 0
KVA1 261147Z 21009KT 20/15 A2996 RMK A01 T02040151  RH  071%=      5-min Rain = 0
KVA1 261148Z 21009KT 20/15 A2996 RMK A01 T02040150  RH  071%=      5-min Rain = 0
KVA1 261149Z 22009KT 20/15 A2996 RMK A01 T02040150  RH  071%=      5-min Rain = 0
KVA1 261150Z 22008KT 20/15 A2996 RMK A01 T02030150  RH  071%=      5-min Rain = 0
KVA1 261151Z 22008KT 20/15 A2996 RMK A01 T02030150  RH  071%=      5-min Rain = 0
KVA1 261152Z 22009KT 20/15 A2996 RMK A01 T02030150  RH  071%=      5-min Rain = 0
KVA1 261153Z 21010KT 20/15 A2996 RMK A01 T02030150  RH  072%=      5-min Rain = 0
KVA1 261154Z 21010KT 20/15 A2996 RMK A01 T02030151  RH  072%=      5-min Rain = 0
KVA1 261155Z 22009KT 21/15 A2996 RMK A01 T02050151  RH  071%=      5-min Rain = 0
KVA1 261156Z 22009KT 21/15 A2996 RMK A01 T02050152  RH  071%=      5-min Rain = 0
KVA1 261157Z 22010KT 21/15 A2996 RMK A01 T02050151  RH  071%=      5-min Rain = 0
KVA1 261158Z 21009KT 21/15 A2996 RMK A01 T02050152  RH  071%=      5-min Rain = 0
KVA1 261159Z 21008KT 21/15 A2996 RMK A01 T02050152  RH  071%=      5-min Rain = 0
KVA1 261200Z 21009KT 21/15 A2996 RMK A01 T02050151  RH  071%=      5-min Rain = 0
KVA1 261201Z 21008KT 20/15 A2996 RMK A01 T02040151  RH  072%=      5-min Rain = 0
KVA1 261202Z 21009KT 20/15 A2997 RMK A01 T02040151  RH  072%=      5-min Rain = 0
KVA1 261203Z 21009KT 20/15 A2997 RMK A01 T02040151  RH  071%=      5-min Rain = 0
KVA1 261204Z 20008KT 20/15 A2997 RMK A01 T02040151  RH  071%=      5-min Rain = 0
KVA1 261205Z 21008KT 20/15 A2997 RMK A01 T02040151  RH  072%=      5-min Rain = 0
KVA1 261206Z 21008KT 20/15 A2997 RMK A01 T02040152  RH  072%=      5-min Rain = 0
KVA1 261207Z 21007KT 20/15 A2997 RMK A01 T02040151  RH  072%=      5-min Rain = 0
KVA1 261208Z 23007KT 20/15 A2997 RMK A01 T02040151  RH  072%=      5-min Rain = 0
KVA1 261209Z 22007KT 20/15 A2997 RMK A01 T02040151  RH  071%=      5-min Rain = 0
KVA1 261210Z 22007KT 20/15 A2997 RMK A01 T02030150  RH  072%=      5-min Rain = 0
KVA1 261211Z 21008KT 20/15 A2997 RMK A01 T02020150  RH  072%=      5-min Rain = 0
KVA1 261212Z 21010KT 20/15 A2997 RMK A01 T02020151  RH  072%=      5-min Rain = 0
KVA1 261213Z 21010KT 20/15 A2997 RMK A01 T02040152  RH  072%=      5-min Rain = 0
KVA1 261214Z 21010KT 20/15 A2997 RMK A01 T02040152  RH  072%=      5-min Rain = 0
KVA1 261215Z 20010KT 21/15 A2997 RMK A01 T02050152  RH  072%=      5-min Rain = 0
KVA1 261216Z 20011KT 21/15 A2997 RMK A01 T02060152  RH  071%=      5-min Rain = 0
KVA1 261217Z 21010KT 21/15 A2997 RMK A01 T02060152  RH  071%=      5-min Rain = 0
KVA1 261218Z 20010KT 21/15 A2998 RMK A01 T02060152  RH  071%=      5-min Rain = 0
KVA1 261219Z 20009KT 21/15 A2998 RMK A01 T02060152  RH  071%=      5-min Rain = 0
KVA1 261220Z 21009KT 21/15 A2998 RMK A01 T02060152  RH  071%=      5-min Rain = 0
KVA1 261221Z 20010KT 21/15 A2998 RMK A01 T02060152  RH  071%=      5-min Rain = 0
KVA1 261222Z 20010KT 21/15 A2998 RMK A01 T02070153  RH  071%=      5-min Rain = 0
KVA1 261223Z 21009KT 21/15 A2998 RMK A01 T02070153  RH  071%=      5-min Rain = 0
KVA1 261224Z 21009KT 21/15 A2998 RMK A01 T02080153  RH  071%=      5-min Rain = 0
KVA1 261225Z 20008KT 21/15 A2998 RMK A01 T02080153  RH  071%=      5-min Rain = 0
KVA1 261226Z 20009KT 21/15 A2998 RMK A01 T02070153  RH  071%=      5-min Rain = 0
KVA1 261227Z 19009KT 21/15 A2998 RMK A01 T02080153  RH  071%=      5-min Rain = 0
KVA1 261228Z 20010KT 21/15 A2998 RMK A01 T02080153  RH  071%=      5-min Rain = 0
KVA1 261229Z 20011KT 21/15 A2998 RMK A01 T02090154  RH  071%=      5-min Rain = 0
KVA1 261230Z 20011KT 21/15 A2998 RMK A01 T02100154  RH  070%=      5-min Rain = 0
KVA1 261231Z 20012KT 21/15 A2998 RMK A01 T02100154  RH  070%=      5-min Rain = 0
KVA1 261232Z 20010KT 21/15 A2999 RMK A01 T02110154  RH  070%=      5-min Rain = 0
KVA1 261233Z 21009KT 21/15 A2999 RMK A01 T02110154  RH  070%=      5-min Rain = 0
KVA1 261234Z 20010KT 21/15 A2999 RMK A01 T02110154  RH  070%=      5-min Rain = 0
KVA1 261235Z 20007KT 21/15 A2999 RMK A01 T02110154  RH  070%=      5-min Rain = 0
KVA1 261236Z 21007KT 21/15 A2999 RMK A01 T02110154  RH  070%=      5-min Rain = 0
KVA1 261237Z 20007KT 21/15 A2999 RMK A01 T02110154  RH  070%=      5-min Rain = 0
KVA1 261238Z 21008KT 21/15 A2999 RMK A01 T02110154  RH  070%=      5-min Rain = 0
KVA1 261239Z 21009KT 21/15 A2999 RMK A01 T02110154  RH  070%=      5-min Rain = 0
KVA1 261240Z 21009KT 21/15 A2999 RMK A01 T02110154  RH  070%=      5-min Rain = 0
KVA1 261241Z 21008KT 21/15 A2999 RMK A01 T02110154  RH  070%=      5-min Rain = 0
KVA1 261242Z 20008KT 21/15 A2999 RMK A01 T02110154  RH  070%=      5-min Rain = 0
KVA1 261243Z 20011KT 21/15 A2999 RMK A01 T02110154  RH  070%=      5-min Rain = 0
KVA1 261244Z 20010KT 21/15 A2999 RMK A01 T02110154  RH  070%=      5-min Rain = 0
KVA1 261245Z 19012KT 21/16 A2999 RMK A01 T02120155  RH  070%=      5-min Rain = 0
KVA1 261246Z 20010KT 21/16 A2999 RMK A01 T02120155  RH  070%=      5-min Rain = 0
KVA1 261247Z 20011KT 21/15 A2999 RMK A01 T02120154  RH  070%=      5-min Rain = 0
KVA1 261248Z 20009KT 21/16 A2999 RMK A01 T02130155  RH  069%=      5-min Rain = 0
KVA1 261249Z 19011KT 21/16 A2999 RMK A01 T02130155  RH  070%=      5-min Rain = 0
KVA1 261250Z 19009KT 21/16 A2999 RMK A01 T02120155  RH  070%=      5-min Rain = 0
KVA1 261251Z 19009KT 21/16 A2999 RMK A01 T02120155  RH  070%=      5-min Rain = 0
KVA1 261252Z 20010KT 21/15 A2999 RMK A01 T02120154  RH  070%=      5-min Rain = 0
KVA1 261253Z 20009KT 21/15 A2999 RMK A01 T02120154  RH  070%=      5-min Rain = 0
KVA1 261254Z 20009KT 21/16 A2999 RMK A01 T02130155  RH  070%=      5-min Rain = 0
KVA1 261255Z 20010KT 21/16 A2999 RMK A01 T02130155  RH  069%=      5-min Rain = 0
KVA1 261256Z 20008KT 21/16 A2999 RMK A01 T02130155  RH  069%=      5-min Rain = 0
KVA1 261257Z 20007KT 21/16 A2999 RMK A01 T02120155  RH  070%=      5-min Rain = 0
KVA1 261258Z 20011KT 21/16 A2999 RMK A01 T02120155  RH  070%=      5-min Rain = 0
KVA1 261259Z 20010KT 21/16 A2999 RMK A01 T02120155  RH  070%=      5-min Rain = 0
KVA1 261300Z 19010KT 21/16 A2999 RMK A01 T02120155  RH  070%=      5-min Rain = 0
KVA1 261301Z 20010KT 21/16 A2999 RMK A01 T02120155  RH  070%=      5-min Rain = 0
KVA1 261302Z 20010KT 21/16 A30 RMK A01 T02120155  RH  070%=      5-min Rain = 0
KVA1 261303Z 20009KT 21/16 A30 RMK A01 T02120155  RH  070%=      5-min Rain = 0
KVA1 261304Z 20009KT 21/15 A30 RMK A01 T02120154  RH  070%=      5-min Rain = 0
KVA1 261305Z 21008KT 21/16 A30 RMK A01 T02120155  RH  070%=      5-min Rain = 0
KVA1 261306Z 21009KT 21/16 A30 RMK A01 T02120155  RH  070%=      5-min Rain = 0
KVA1 261307Z 21009KT 21/16 A30 RMK A01 T02120155  RH  070%=      5-min Rain = 0
KVA1 261308Z 21010KT 21/16 A30 RMK A01 T02120155  RH  070%=      5-min Rain = 0
KVA1 261309Z 21010KT 21/16 A30 RMK A01 T02120155  RH  070%=      5-min Rain = 0
KVA1 261310Z 20011KT 21/16 A30 RMK A01 T02120155  RH  070%=      5-min Rain = 0
KVA1 261311Z 20011KT 21/15 A30 RMK A01 T02120154  RH  070%=      5-min Rain = 0
KVA1 261312Z 20009KT 21/15 A30 RMK A01 T02120154  RH  070%=      5-min Rain = 0
KVA1 261313Z 20010KT 21/15 A30 RMK A01 T02120154  RH  070%=      5-min Rain = 0
KVA1 261314Z 20009KT 21/15 A30 RMK A01 T02120154  RH  070%=      5-min Rain = 0
KVA1 261315Z 21009KT 21/15 A30 RMK A01 T02120154  RH  070%=      5-min Rain = 0
KVA1 261316Z 20008KT 21/15 A30 RMK A01 T02120154  RH  070%=      5-min Rain = 0
KVA1 261317Z 21007KT 21/15 A30 RMK A01 T02120154  RH  069%=      5-min Rain = 0
KVA1 261318Z 21007KT 21/15 A30 RMK A01 T02120154  RH  069%=      5-min Rain = 0
KVA1 261319Z 22007KT 21/15 A30 RMK A01 T02120153  RH  069%=      5-min Rain = 0
KVA1 261320Z 22006KT 21/15 A30 RMK A01 T02110153  RH  069%=      5-min Rain = 0
KVA1 261321Z 22005KT 21/15 A3001 RMK A01 T02110153  RH  069%=      5-min Rain = 0
KVA1 261322Z 22006KT 21/15 A3001 RMK A01 T02110152  RH  069%=      5-min Rain = 0
KVA1 261323Z 21006KT 21/15 A3001 RMK A01 T02110151  RH  068%=      5-min Rain = 0
KVA1 261324Z 21006KT 21/15 A3001 RMK A01 T02110151  RH  069%=      5-min Rain = 0
KVA1 261325Z 21007KT 21/15 A3001 RMK A01 T02110152  RH  069%=      5-min Rain = 0
KVA1 261326Z 21007KT 21/15 A3001 RMK A01 T02110152  RH  069%=      5-min Rain = 0
KVA1 261327Z 21007KT 21/15 A3001 RMK A01 T02110152  RH  069%=      5-min Rain = 0
KVA1 261328Z 21006KT 21/15 A3001 RMK A01 T02120153  RH  069%=      5-min Rain = 0
KVA1 261329Z 21007KT 21/15 A30 RMK A01 T02120153  RH  069%=      5-min Rain = 0
KVA1 261330Z 21008KT 21/15 A30 RMK A01 T02130153  RH  069%=      5-min Rain = 0
KVA1 261331Z 21008KT 21/15 A30 RMK A01 T02130154  RH  069%=      5-min Rain = 0
KVA1 261332Z 21007KT 21/15 A30 RMK A01 T02140154  RH  069%=      5-min Rain = 0
KVA1 261333Z 21007KT 21/15 A30 RMK A01 T02140154  RH  068%=      5-min Rain = 0
KVA1 261334Z 21009KT 22/15 A30 RMK A01 T02150154  RH  068%=      5-min Rain = 0
KVA1 261335Z 20008KT 22/15 A30 RMK A01 T02150154  RH  068%=      5-min Rain = 0
KVA1 261336Z 21006KT 22/15 A30 RMK A01 T02150154  RH  068%=      5-min Rain = 0
KVA1 261337Z 21009KT 22/15 A30 RMK A01 T02150154  RH  068%=      5-min Rain = 0
KVA1 261338Z 21009KT 22/15 A30 RMK A01 T02150154  RH  068%=      5-min Rain = 0
KVA1 261339Z 21008KT 22/16 A30 RMK A01 T02160155  RH  068%=      5-min Rain = 0
KVA1 261340Z 21008KT 22/15 A30 RMK A01 T02160154  RH  068%=      5-min Rain = 0
KVA1 261341Z 21008KT 22/15 A30 RMK A01 T02160154  RH  068%=      5-min Rain = 0
KVA1 261342Z 21008KT 22/15 A30 RMK A01 T02160154  RH  068%=      5-min Rain = 0
KVA1 261343Z 21008KT 22/16 A30 RMK A01 T02170155  RH  068%=      5-min Rain = 0
KVA1 261344Z 21008KT 22/16 A30 RMK A01 T02170155  RH  068%=      5-min Rain = 0
KVA1 261345Z 21008KT 22/16 A30 RMK A01 T02170155  RH  068%=      5-min Rain = 0
KVA1 261346Z 21008KT 22/16 A30 RMK A01 T02180155  RH  068%=      5-min Rain = 0
KVA1 261347Z 22006KT 22/16 A30 RMK A01 T02180155  RH  067%=      5-min Rain = 0
KVA1 261348Z 22008KT 22/16 A30 RMK A01 T02190155  RH  067%=      5-min Rain = 0
KVA1 261349Z 22007KT 22/16 A30 RMK A01 T02190155  RH  067%=      5-min Rain = 0
KVA1 261350Z 22007KT 22/16 A30 RMK A01 T02190155  RH  067%=      5-min Rain = 0
KVA1 261351Z 22007KT 22/16 A30 RMK A01 T02200156  RH  067%=      5-min Rain = 0
KVA1 261352Z 22008KT 22/16 A30 RMK A01 T02200156  RH  067%=      5-min Rain = 0
KVA1 261353Z 22007KT 22/16 A30 RMK A01 T02210156  RH  066%=      5-min Rain = 0
KVA1 261354Z 22008KT 22/16 A30 RMK A01 T02220155  RH  066%=      5-min Rain = 0
KVA1 261355Z 22008KT 22/16 A30 RMK A01 T02220156  RH  066%=      5-min Rain = 0
KVA1 261356Z 22006KT 22/16 A30 RMK A01 T02220155  RH  066%=      5-min Rain = 0
KVA1 261357Z 23007KT 22/16 A30 RMK A01 T02230156  RH  066%=      5-min Rain = 0
KVA1 261358Z 22007KT 22/16 A30 RMK A01 T02230156  RH  066%=      5-min Rain = 0
KVA1 261359Z 22007KT 22/16 A30 RMK A01 T02240156  RH  065%=      5-min Rain = 0
KVA1 261400Z 21007KT 23/16 A3001 RMK A01 T02250156  RH  065%=      5-min Rain = 0
KVA1 261401Z 21007KT 23/16 A3001 RMK A01 T02250156  RH  065%=      5-min Rain = 0
KVA1 261402Z 21008KT 23/16 A3001 RMK A01 T02270156  RH  064%=      5-min Rain = 0
KVA1 261403Z 21007KT 23/16 A3001 RMK A01 T02270156  RH  064%=      5-min Rain = 0
KVA1 261404Z 22007KT 23/16 A3001 RMK A01 T02280156  RH  064%=      5-min Rain = 0
KVA1 261405Z 21007KT 23/16 A3001 RMK A01 T02280156  RH  064%=      5-min Rain = 0
KVA1 261406Z 21007KT 23/16 A3001 RMK A01 T02280156  RH  064%=      5-min Rain = 0
KVA1 261407Z 21007KT 23/16 A3001 RMK A01 T02290156  RH  064%=      5-min Rain = 0
KVA1 261408Z 20009KT 23/16 A3001 RMK A01 T02290156  RH  063%=      5-min Rain = 0
KVA1 261409Z 20008KT 23/16 A3001 RMK A01 T02290156  RH  063%=      5-min Rain = 0
KVA1 261410Z 20008KT 23/16 A3001 RMK A01 T02290155  RH  063%=      5-min Rain = 0
KVA1 261411Z 21008KT 23/16 A3001 RMK A01 T02290156  RH  063%=      5-min Rain = 0
KVA1 261412Z 20008KT 23/16 A3001 RMK A01 T02290155  RH  063%=      5-min Rain = 0
KVA1 261413Z 21007KT 23/16 A3001 RMK A01 T02290156  RH  063%=      5-min Rain = 0
KVA1 261414Z 20008KT 23/16 A3001 RMK A01 T02300156  RH  063%=      5-min Rain = 0
KVA1 261415Z 21008KT 23/16 A3001 RMK A01 T02310156  RH  063%=      5-min Rain = 0
KVA1 261416Z 21007KT 23/16 A3001 RMK A01 T02300155  RH  062%=      5-min Rain = 0
KVA1 261417Z 21007KT 23/16 A3001 RMK A01 T02310155  RH  063%=      5-min Rain = 0
KVA1 261418Z 21008KT 23/16 A3001 RMK A01 T02320156  RH  062%=      5-min Rain = 0
KVA1 261419Z 20008KT 23/16 A3001 RMK A01 T02320156  RH  062%=      5-min Rain = 0
KVA1 261420Z 20010KT 23/16 A3001 RMK A01 T02330156  RH  062%=      5-min Rain = 0
KVA1 261421Z 21009KT 23/16 A3001 RMK A01 T02330155  RH  062%=      5-min Rain = 0
KVA1 261422Z 20009KT 23/16 A3001 RMK A01 T02340156  RH  061%=      5-min Rain = 0
KVA1 261423Z 21008KT 23/16 A3001 RMK A01 T02340156  RH  061%=      5-min Rain = 0
KVA1 261424Z 21008KT 23/16 A3001 RMK A01 T02340156  RH  062%=      5-min Rain = 0
KVA1 261425Z 21008KT 24/16 A3001 RMK A01 T02350156  RH  061%=      5-min Rain = 0
KVA1 261426Z 20009KT 24/16 A3001 RMK A01 T02350156  RH  061%=      5-min Rain = 0
KVA1 261427Z 20009KT 24/16 A3001 RMK A01 T02360156  RH  061%=      5-min Rain = 0
KVA1 261428Z 20007KT 24/16 A3001 RMK A01 T02380157  RH  060%=      5-min Rain = 0
KVA1 261429Z 20007KT 24/16 A3001 RMK A01 T02390157  RH  060%=      5-min Rain = 0
KVA1 261430Z 21009KT 24/16 A3001 RMK A01 T02400157  RH  060%=      5-min Rain = 0
KVA1 261431Z 21010KT 24/16 A3001 RMK A01 T02400156  RH  060%=      5-min Rain = 0
KVA1 261432Z 20009KT 24/16 A3001 RMK A01 T02400157  RH  060%=      5-min Rain = 0
KVA1 261433Z 20008KT 24/16 A3001 RMK A01 T02390156  RH  060%=      5-min Rain = 0
KVA1 261434Z 20007KT 24/16 A3001 RMK A01 T02400157  RH  060%=      5-min Rain = 0
KVA1 261435Z 20008KT 24/16 A3001 RMK A01 T02420158  RH  059%=      5-min Rain = 0
KVA1 261436Z 19009KT 24/16 A3001 RMK A01 T02420156  RH  059%=      5-min Rain = 0
KVA1 261437Z 19009KT 24/16 A3001 RMK A01 T02420156  RH  059%=      5-min Rain = 0
KVA1 261438Z 20009KT 24/16 A3001 RMK A01 T02430157  RH  059%=      5-min Rain = 0
KVA1 261439Z 20010KT 24/16 A3001 RMK A01 T02430156  RH  059%=      5-min Rain = 0
KVA1 261440Z 19009KT 24/16 A3001 RMK A01 T02430156  RH  059%=      5-min Rain = 0
KVA1 261441Z 19010KT 24/16 A3001 RMK A01 T02430155  RH  058%=      5-min Rain = 0
KVA1 261442Z 19009KT 24/16 A3001 RMK A01 T02430155  RH  058%=      5-min Rain = 0
KVA1 261443Z 20008KT 24/16 A3001 RMK A01 T02430155  RH  058%=      5-min Rain = 0
KVA1 261444Z 20008KT 24/16 A3001 RMK A01 T02430156  RH  058%=      5-min Rain = 0
KVA1 261445Z 20006KT 24/16 A3001 RMK A01 T02430156  RH  058%=      5-min Rain = 0
KVA1 261446Z 20007KT 24/16 A3001 RMK A01 T02440157  RH  058%=      5-min Rain = 0
KVA1 261447Z 19007KT 24/16 A3001 RMK A01 T02440156  RH  058%=      5-min Rain = 0
KVA1 261448Z 18007KT 25/16 A3001 RMK A01 T02450156  RH  058%=      5-min Rain = 0
KVA1 261449Z 20008KT 25/16 A3001 RMK A01 T02470157  RH  057%=      5-min Rain = 0
KVA1 261450Z 20009KT 25/16 A3001 RMK A01 T02480157  RH  057%=      5-min Rain = 0
KVA1 261451Z 19010KT 25/16 A3001 RMK A01 T02480156  RH  056%=      5-min Rain = 0
KVA1 261452Z 19009KT 25/16 A3001 RMK A01 T02480155  RH  056%=      5-min Rain = 0
KVA1 261453Z 19010KT 25/16 A3001 RMK A01 T02470156  RH  057%=      5-min Rain = 0
KVA1 261454Z 19008KT 25/16 A3001 RMK A01 T02470155  RH  057%=      5-min Rain = 0
KVA1 261455Z 20011KT 25/16 A3002 RMK A01 T02490156  RH  056%=      5-min Rain = 0
KVA1 261456Z 20010KT 25/16 A3002 RMK A01 T02500157  RH  056%=      5-min Rain = 0
KVA1 261457Z 19009KT 25/16 A3002 RMK A01 T02510157  RH  056%=      5-min Rain = 0
KVA1 261458Z 19009KT 25/16 A3002 RMK A01 T02520157  RH  055%=      5-min Rain = 0
KVA1 261459Z 19010KT 25/16 A3002 RMK A01 T02520157  RH  055%=      5-min Rain = 0
KVA1 261500Z 18011KT 25/16 A3002 RMK A01 T02530156  RH  055%=      5-min Rain = 0
KVA1 261501Z 18011KT 25/16 A3002 RMK A01 T02520156  RH  055%=      5-min Rain = 0
KVA1 261502Z 19009KT 25/16 A3002 RMK A01 T02530157  RH  055%=      5-min Rain = 0
KVA1 261503Z 19009KT 25/16 A3002 RMK A01 T02530157  RH  055%=      5-min Rain = 0
KVA1 261504Z 19009KT 25/16 A3002 RMK A01 T02540156  RH  054%=      5-min Rain = 0
KVA1 261505Z 20010KT 26/16 A3002 RMK A01 T02550158  RH  055%=      5-min Rain = 0
KVA1 261506Z 20010KT 26/16 A3002 RMK A01 T02550157  RH  055%=      5-min Rain = 0
KVA1 261507Z 20009KT 25/16 A3002 RMK A01 T02540158  RH  055%=      5-min Rain = 0
KVA1 261508Z 20009KT 25/16 A3002 RMK A01 T02540158  RH  055%=      5-min Rain = 0
KVA1 261509Z 19008KT 25/16 A3002 RMK A01 T02540157  RH  055%=      5-min Rain = 0
KVA1 261510Z 19010KT 26/16 A3002 RMK A01 T02550157  RH  055%=      5-min Rain = 0
KVA1 261511Z 19010KT 26/16 A3002 RMK A01 T02550157  RH  055%=      5-min Rain = 0
KVA1 261512Z 19010KT 25/16 A3002 RMK A01 T02540156  RH  055%=      5-min Rain = 0
KVA1 261513Z 19012KT 25/16 A3002 RMK A01 T02540156  RH  054%=      5-min Rain = 0
KVA1 261514Z 19011KT 25/16 A3002 RMK A01 T02540155  RH  054%=      5-min Rain = 0
KVA1 261515Z 19011KT 25/16 A3002 RMK A01 T02540156  RH  055%=      5-min Rain = 0
KVA1 261516Z 18011KT 25/16 A3002 RMK A01 T02540155  RH  054%=      5-min Rain = 0
KVA1 261517Z 19011KT 25/16 A3002 RMK A01 T02540156  RH  055%=      5-min Rain = 0
KVA1 261518Z 19010KT 25/16 A3002 RMK A01 T02540156  RH  055%=      5-min Rain = 0
KVA1 261519Z 19012KT 26/16 A3002 RMK A01 T02550156  RH  054%=      5-min Rain = 0
KVA1 261520Z 18011KT 26/16 A3002 RMK A01 T02560156  RH  054%=      5-min Rain = 0
KVA1 261521Z 18011KT 26/16 A3002 RMK A01 T02560157  RH  054%=      5-min Rain = 0
KVA1 261522Z 18009KT 26/16 A3002 RMK A01 T02570157  RH  054%=      5-min Rain = 0
KVA1 261523Z 18010KT 26/16 A3002 RMK A01 T02580156  RH  053%=      5-min Rain = 0
KVA1 261524Z 19008KT 26/16 A3002 RMK A01 T02590155  RH  053%=      5-min Rain = 0
KVA1 261525Z 19009KT 26/16 A3002 RMK A01 T02590155  RH  053%=      5-min Rain = 0
KVA1 261526Z 19011KT 26/16 A3002 RMK A01 T02590155  RH  053%=      5-min Rain = 0
KVA1 261527Z 18011KT 26/15 A3002 RMK A01 T02590152  RH  051%=      5-min Rain = 0
KVA1 261528Z 18008KT 26/15 A3002 RMK A01 T02600152  RH  051%=      5-min Rain = 0
KVA1 261529Z 17011KT 26/15 A3002 RMK A01 T02620154  RH  051%=      5-min Rain = 0
KVA1 261530Z 18011KT 26/15 A3002 RMK A01 T02630151  RH  050%=      5-min Rain = 0
KVA1 261531Z 18011KT 26/15 A3002 RMK A01 T02620148  RH  049%=      5-min Rain = 0
KVA1 261532Z 18010KT 26/15 A3002 RMK A01 T02610146  RH  049%=      5-min Rain = 0
KVA1 261533Z 18010KT 26/15 A3002 RMK A01 T02620149  RH  050%=      5-min Rain = 0
KVA1 261534Z 18010KT 26/15 A3002 RMK A01 T02630150  RH  050%=      5-min Rain = 0
KVA1 261535Z 18010KT 26/15 A3002 RMK A01 T02630149  RH  049%=      5-min Rain = 0
KVA1 261536Z 18010KT 26/15 A3002 RMK A01 T02630148  RH  049%=      5-min Rain = 0
KVA1 261537Z 18007KT 26/15 A3002 RMK A01 T02640148  RH  049%=      5-min Rain = 0
KVA1 261538Z 17008KT 27/15 A3002 RMK A01 T02660149  RH  049%=      5-min Rain = 0
KVA1 261539Z 18009KT 27/15 A3002 RMK A01 T02670149  RH  048%=      5-min Rain = 0
KVA1 261540Z 19009KT 27/15 A3002 RMK A01 T02670147  RH  048%=      5-min Rain = 0
KVA1 261541Z 18010KT 27/15 A3002 RMK A01 T02680145  RH  047%=      5-min Rain = 0
KVA1 261542Z 17010KT 27/15 A3002 RMK A01 T02680146  RH  047%=      5-min Rain = 0
KVA1 261543Z 18010KT 27/14 A3002 RMK A01 T02680144  RH  046%=      5-min Rain = 0
KVA1 261544Z 19010KT 27/14 A3002 RMK A01 T02680143  RH  046%=      5-min Rain = 0
KVA1 261545Z 17010KT 27/14 A3002 RMK A01 T02670142  RH  046%=      5-min Rain = 0
KVA1 261546Z 18009KT 27/14 A3002 RMK A01 T02670138  RH  045%=      5-min Rain = 0
KVA1 261547Z 18009KT 27/13 A3002 RMK A01 T02680134  RH  044%=      5-min Rain = 0
KVA1 261548Z 18008KT 27/13 A3002 RMK A01 T02690131  RH  042%=      5-min Rain = 0
KVA1 261549Z 18009KT 27/13 A3002 RMK A01 T02710129  RH  041%=      5-min Rain = 0
KVA1 261550Z 19008KT 27/13 A3002 RMK A01 T02710130  RH  042%=      5-min Rain = 0
KVA1 261551Z 19007KT 27/14 A3002 RMK A01 T02710137  RH  044%=      5-min Rain = 0
KVA1 261552Z 18005KT 27/14 A3002 RMK A01 T02700140  RH  045%=      5-min Rain = 0
KVA1 261553Z 18007KT 27/14 A3002 RMK A01 T02690136  RH  044%=      5-min Rain = 0
KVA1 261554Z 19008KT 27/12 A3002 RMK A01 T02710117  RH  038%=      5-min Rain = 0
KVA1 261555Z 19008KT 27/13 A3002 RMK A01 T02730131  RH  042%=      5-min Rain = 0
KVA1 261556Z 19009KT 27/13 A3002 RMK A01 T02720130  RH  042%=      5-min Rain = 0
KVA1 261557Z 17009KT 27/13 A3002 RMK A01 T02720128  RH  041%=      5-min Rain = 0
KVA1 261558Z 17008KT 27/13 A3002 RMK A01 T02730125  RH  040%=      5-min Rain = 0
KVA1 261559Z 17009KT 28/12 A3002 RMK A01 T02750117  RH  037%=      5-min Rain = 0
KVA1 261600Z 18009KT 28/10 A3002 RMK A01 T02770099  RH  033%=      5-min Rain = 0
KVA1 261601Z 19007KT 28/08 A3002 RMK A01 T02790081  RH  029%=      5-min Rain = 0
KVA1 261602Z 19008KT 28/09 A3002 RMK A01 T02790093  RH  031%=      5-min Rain = 0
KVA1 261603Z 19007KT 28/12 A3002 RMK A01 T02810119  RH  037%=      5-min Rain = 0
KVA1 261604Z 19007KT 28/13 A3002 RMK A01 T02810132  RH  040%=      5-min Rain = 0
KVA1 261605Z 17007KT 28/13 A3002 RMK A01 T02820129  RH  039%=      5-min Rain = 0
KVA1 261606Z 15008KT 28/12 A3001 RMK A01 T02830120  RH  036%=      5-min Rain = 0
KVA1 261607Z 16008KT 28/11 A3001 RMK A01 T02840106  RH  033%=      5-min Rain = 0
KVA1 261608Z 18009KT 28/11 A3001 RMK A01 T02840114  RH  035%=      5-min Rain = 0
KVA1 261609Z 17009KT 28/12 A3001 RMK A01 T02840119  RH  036%=      5-min Rain = 0
KVA1 261610Z 17010KT 28/11 A3002 RMK A01 T02840108  RH  034%=      5-min Rain = 0
KVA1 261611Z 16008KT 28/12 A3002 RMK A01 T02830122  RH  037%=      5-min Rain = 0
KVA1 261612Z 16008KT 28/13 A3002 RMK A01 T02820132  RH  040%=      5-min Rain = 0
KVA1 261613Z 17009KT 28/13 A3002 RMK A01 T02810132  RH  040%=      5-min Rain = 0
KVA1 261614Z 16007KT 28/13 A3002 RMK A01 T02810126  RH  038%=      5-min Rain = 0
KVA1 261615Z 17009KT 28/12 A3002 RMK A01 T02820119  RH  036%=      5-min Rain = 0
KVA1 261616Z 17009KT 29/10 A3002 RMK A01 T02850099  RH  031%=      5-min Rain = 0
KVA1 261617Z 17008KT 29/08 A3002 RMK A01 T02870078  RH  027%=      5-min Rain = 0
KVA1 261618Z 18006KT 29/09 A3002 RMK A01 T02880092  RH  029%=      5-min Rain = 0
KVA1 261619Z 18006KT 29/13 A3002 RMK A01 T02860129  RH  038%=      5-min Rain = 0
KVA1 261620Z 18008KT 28/11 A3002 RMK A01 T02840107  RH  033%=      5-min Rain = 0
KVA1 261621Z 18009KT 28/10 A3002 RMK A01 T02840099  RH  031%=      5-min Rain = 0
KVA1 261622Z 17006KT 29/10 A3002 RMK A01 T02860099  RH  031%=      5-min Rain = 0
KVA1 261623Z 16007KT 29/09 A3002 RMK A01 T02850089  RH  029%=      5-min Rain = 0
KVA1 261624Z 17008KT 29/08 A3002 RMK A01 T02880080  RH  027%=      5-min Rain = 0
KVA1 261625Z 17007KT 29/09 A3002 RMK A01 T02890094  RH  030%=      5-min Rain = 0
KVA1 261626Z 18010KT 29/11 A3002 RMK A01 T02880105  RH  032%=      5-min Rain = 0
KVA1 261627Z 17009KT 29/11 A3002 RMK A01 T02870114  RH  034%=      5-min Rain = 0
KVA1 261628Z 16008KT 29/11 A3002 RMK A01 T02880107  RH  033%=      5-min Rain = 0
KVA1 261629Z 16005KT 29/12 A3002 RMK A01 T02880121  RH  036%=      5-min Rain = 0
KVA1 261630Z 19007KT 29/12 A3002 RMK A01 T02890122  RH  036%=      5-min Rain = 0
KVA1 261631Z 19007KT 29/11 A3002 RMK A01 T02920113  RH  033%=      5-min Rain = 0
KVA1 261632Z 17008KT 29/11 A3002 RMK A01 T02920107  RH  032%=      5-min Rain = 0
KVA1 261633Z 16009KT 29/11 A3002 RMK A01 T02930109  RH  032%=      5-min Rain = 0
KVA1 261634Z 17008KT 29/11 A3002 RMK A01 T02920110  RH  032%=      5-min Rain = 0
KVA1 261635Z 15007KT 29/11 A3002 RMK A01 T02890109  RH  033%=      5-min Rain = 0
KVA1 261636Z 16009KT 29/09 A3002 RMK A01 T02890089  RH  029%=      5-min Rain = 0
KVA1 261637Z 16008KT 29/09 A3002 RMK A01 T02910093  RH  029%=      5-min Rain = 0
KVA1 261638Z 15009KT 29/09 A3002 RMK A01 T02920093  RH  029%=      5-min Rain = 0
KVA1 261639Z 15008KT 29/10 A3002 RMK A01 T02920095  RH  029%=      5-min Rain = 0
KVA1 261640Z 15008KT 29/10 A3002 RMK A01 T02920095  RH  029%=      5-min Rain = 0
KVA1 261641Z 16008KT 29/10 A3002 RMK A01 T02920097  RH  030%=      5-min Rain = 0
KVA1 261642Z 17007KT 29/10 A3002 RMK A01 T02930096  RH  029%=      5-min Rain = 0
KVA1 261643Z 15008KT 29/10 A3002 RMK A01 T02920100  RH  030%=      5-min Rain = 0
KVA1 261644Z 15006KT 29/10 A3002 RMK A01 T02920103  RH  031%=      5-min Rain = 0
KVA1 261645Z 15009KT 29/10 A3002 RMK A01 T02920103  RH  031%=      5-min Rain = 0
KVA1 261646Z 17008KT 29/10 A3002 RMK A01 T02930102  RH  031%=      5-min Rain = 0
KVA1 261647Z 17009KT 30/10 A3002 RMK A01 T02950102  RH  030%=      5-min Rain = 0
KVA1 261648Z 16008KT 29/10 A3002 RMK A01 T02940104  RH  031%=      5-min Rain = 0
KVA1 261649Z 18007KT 29/10 A3002 RMK A01 T02930099  RH  030%=      5-min Rain = 0
KVA1 261650Z 19007KT 29/09 A3002 RMK A01 T02920092  RH  029%=      5-min Rain = 0
KVA1 261651Z 17009KT 29/09 A3002 RMK A01 T02910091  RH  029%=      5-min Rain = 0
KVA1 261652Z 18008KT 29/08 A3002 RMK A01 T02920084  RH  027%=      5-min Rain = 0
KVA1 261653Z 18008KT 29/07 A3002 RMK A01 T02920074  RH  025%=      5-min Rain = 0
KVA1 261654Z 18008KT 29/08 A3002 RMK A01 T02920076  RH  026%=      5-min Rain = 0
KVA1 261655Z 19007KT 29/08 A3002 RMK A01 T02920081  RH  027%=      5-min Rain = 0
KVA1 261656Z 18006KT 29/07 A3002 RMK A01 T02920074  RH  025%=      5-min Rain = 0
KVA1 261657Z 18007KT 29/08 A3002 RMK A01 T02920080  RH  026%=      5-min Rain = 0
KVA1 261658Z 19007KT 29/08 A3002 RMK A01 T02920084  RH  027%=      5-min Rain = 0
KVA1 261659Z 20006KT 29/08 A3002 RMK A01 T02920080  RH  026%=      5-min Rain = 0
KVA1 261700Z 19006KT 29/08 A3002 RMK A01 T02930083  RH  027%=      5-min Rain = 0
KVA1 261701Z 18007KT 29/09 A3002 RMK A01 T02940093  RH  029%=      5-min Rain = 0
KVA1 261702Z 18010KT 30/08 A3002 RMK A01 T02960079  RH  026%=      5-min Rain = 0
KVA1 261703Z 19006KT 30/08 A3002 RMK A01 T02970075  RH  025%=      5-min Rain = 0
KVA1 261704Z 17008KT 30/08 A3002 RMK A01 T02970077  RH  025%=      5-min Rain = 0
KVA1 261705Z 16010KT 30/09 A3002 RMK A01 T02980085  RH  027%=      5-min Rain = 0
KVA1 261706Z 17013KT 30/10 A3002 RMK A01 T02990098  RH  029%=      5-min Rain = 0
KVA1 261707Z 19012KT 30/10 A3002 RMK A01 T02980102  RH  030%=      5-min Rain = 0
KVA1 261708Z 20008KT 29/11 A3002 RMK A01 T02940110  RH  032%=      5-min Rain = 0
KVA1 261709Z 18008KT 29/11 A3002 RMK A01 T02930112  RH  033%=      5-min Rain = 0
KVA1 261710Z 18009KT 29/11 A3002 RMK A01 T02920108  RH  032%=      5-min Rain = 0
KVA1 261711Z 18007KT 29/10 A3002 RMK A01 T02940103  RH  031%=      5-min Rain = 0
KVA1 261712Z 17008KT 29/10 A3002 RMK A01 T02940102  RH  030%=      5-min Rain = 0
KVA1 261713Z 18011KT 30/11 A3002 RMK A01 T02960109  RH  031%=      5-min Rain = 0
KVA1 261714Z 19011KT 30/11 A3002 RMK A01 T03000111  RH  031%=      5-min Rain = 0
KVA1 261715Z 18008KT 30/11 A3002 RMK A01 T03010109  RH  031%=      5-min Rain = 0
KVA1 261716Z 18007KT 30/10 A3002 RMK A01 T03010103  RH  029%=      5-min Rain = 0
KVA1 261717Z 17007KT 30/10 A3002 RMK A01 T03010102  RH  029%=      5-min Rain = 0
KVA1 261718Z 18010KT 30/11 A3002 RMK A01 T03000108  RH  030%=      5-min Rain = 0
KVA1 261719Z 20009KT 30/11 A3002 RMK A01 T03030110  RH  030%=      5-min Rain = 0
KVA1 261720Z 17007KT 30/11 A3001 RMK A01 T03020109  RH  030%=      5-min Rain = 0
KVA1 261721Z 18007KT 30/11 A3001 RMK A01 T03020110  RH  030%=      5-min Rain = 0
KVA1 261722Z 18006KT 30/11 A3001 RMK A01 T03030107  RH  030%=      5-min Rain = 0
KVA1 261723Z 18010G15KT 30/11 A3001 RMK A01 T03020108  RH  030%=      5-min Rain = 0
KVA1 261724Z 17012KT 30/11 A3001 RMK A01 T03030106  RH  030%=      5-min Rain = 0
KVA1 261725Z 16010KT 31/10 A3001 RMK A01 T03050101  RH  028%=      5-min Rain = 0
KVA1 261726Z 17008KT 31/10 A3001 RMK A01 T03060100  RH  028%=      5-min Rain = 0
KVA1 261727Z 17008KT 31/10 A3001 RMK A01 T03070103  RH  028%=      5-min Rain = 0
KVA1 261728Z 15012KT 31/11 A3001 RMK A01 T03100105  RH  028%=      5-min Rain = 0
KVA1 261729Z 14012KT 31/11 A3001 RMK A01 T03090106  RH  029%=      5-min Rain = 0
KVA1 261730Z 15012KT 31/11 A3001 RMK A01 T03060107  RH  029%=      5-min Rain = 0
KVA1 261731Z 15012KT 31/11 A3001 RMK A01 T03050108  RH  030%=      5-min Rain = 0
KVA1 261732Z 15008KT 31/11 A3001 RMK A01 T03060106  RH  029%=      5-min Rain = 0
KVA1 261733Z 15010KT 31/10 A3001 RMK A01 T03060104  RH  029%=      5-min Rain = 0
KVA1 261734Z 17010KT 31/10 A3001 RMK A01 T03050102  RH  028%=      5-min Rain = 0
KVA1 261735Z 16011KT 31/10 A3001 RMK A01 T03050100  RH  028%=      5-min Rain = 0
KVA1 261736Z 16012KT 31/10 A3001 RMK A01 T03060101  RH  028%=      5-min Rain = 0
KVA1 261737Z 16013KT 31/10 A3001 RMK A01 T03070100  RH  028%=      5-min Rain = 0
KVA1 261738Z 16010KT 31/10 A3001 RMK A01 T03080096  RH  027%=      5-min Rain = 0
KVA1 261739Z 16008KT 31/10 A3001 RMK A01 T03070096  RH  027%=      5-min Rain = 0
KVA1 261740Z 16005KT 30/10 A3001 RMK A01 T03040096  RH  028%=      5-min Rain = 0
KVA1 261741Z 17008G13KT 30/10 A3001 RMK A01 T03040097  RH  028%=      5-min Rain = 0
KVA1 261742Z 17011KT 30/10 A3001 RMK A01 T03040102  RH  029%=      5-min Rain = 0
KVA1 261743Z 18008KT 31/10 A3001 RMK A01 T03050100  RH  028%=      5-min Rain = 0
KVA1 261744Z 18006KT 31/10 A3001 RMK A01 T03060098  RH  028%=      5-min Rain = 0
KVA1 261745Z 18009G14KT 31/10 A3001 RMK A01 T03050098  RH  028%=      5-min Rain = 0
KVA1 261746Z 18012KT 31/10 A3001 RMK A01 T03060096  RH  027%=      5-min Rain = 0
KVA1 261747Z 19010KT 31/09 A3001 RMK A01 T03060094  RH  027%=      5-min Rain = 0
KVA1 261748Z 19013KT 31/09 A30 RMK A01 T03070093  RH  027%=      5-min Rain = 0
KVA1 261749Z 17010KT 31/09 A3001 RMK A01 T03060091  RH  026%=      5-min Rain = 0
KVA1 261750Z 17011KT 31/09 A3001 RMK A01 T03060091  RH  026%=      5-min Rain = 0
KVA1 261751Z 19007KT 31/09 A3001 RMK A01 T03070091  RH  026%=      5-min Rain = 0
KVA1 261752Z 19009KT 31/09 A3001 RMK A01 T03100092  RH  026%=      5-min Rain = 0
KVA1 261753Z 19014KT 31/09 A3001 RMK A01 T03100089  RH  025%=      5-min Rain = 0
KVA1 261754Z 18014KT 31/08 A3001 RMK A01 T03090081  RH  024%=      5-min Rain = 0
KVA1 261755Z 18011KT 31/07 A3001 RMK A01 T03090073  RH  023%=      5-min Rain = 0
KVA1 261756Z 19010KT 31/08 A3001 RMK A01 T03080075  RH  023%=      5-min Rain = 0
KVA1 261757Z 21008G13KT 31/08 A3001 RMK A01 T03080077  RH  024%=      5-min Rain = 0
KVA1 261758Z 18007KT 31/08 A3001 RMK A01 T03090078  RH  024%=      5-min Rain = 0
KVA1 261759Z 22007KT 31/08 A30 RMK A01 T03100078  RH  024%=      5-min Rain = 0
KVA1 261800Z 22006KT 31/08 A30 RMK A01 T03080078  RH  024%=      5-min Rain = 0
KVA1 261801Z 22006KT 31/08 A30 RMK A01 T03060078  RH  024%=      5-min Rain = 0
KVA1 261802Z 19006KT 31/08 A30 RMK A01 T03050079  RH  024%=      5-min Rain = 0
KVA1 261803Z 19008KT 31/08 A30 RMK A01 T03050076  RH  024%=      5-min Rain = 0
KVA1 261804Z 19011KT 31/08 A30 RMK A01 T03050076  RH  024%=      5-min Rain = 0
KVA1 261805Z 19010KT 31/07 A30 RMK A01 T03050067  RH  022%=      5-min Rain = 0
KVA1 261806Z 21011KT 31/06 A30 RMK A01 T03060060  RH  021%=      5-min Rain = 0
KVA1 261807Z 21008KT 31/06 A30 RMK A01 T03070058  RH  021%=      5-min Rain = 0
KVA1 261808Z 21010KT 31/06 A30 RMK A01 T03090057  RH  020%=      5-min Rain = 0
KVA1 261809Z 20012KT 31/05 A30 RMK A01 T03110050  RH  019%=      5-min Rain = 0
KVA1 261810Z 20009KT 31/04 A30 RMK A01 T03100044  RH  019%=      5-min Rain = 0
KVA1 261811Z 20009KT 31/05 A30 RMK A01 T03090045  RH  019%=      5-min Rain = 0
KVA1 261812Z 21013KT 31/05 A30 RMK A01 T03090047  RH  019%=      5-min Rain = 0
KVA1 261813Z 22011KT 31/05 A30 RMK A01 T03090047  RH  019%=      5-min Rain = 0
KVA1 261814Z 22010KT 31/05 A30 RMK A01 T03090045  RH  019%=      5-min Rain = 0
KVA1 261815Z 22010KT 31/05 A2999 RMK A01 T03090045  RH  019%=      5-min Rain = 0
KVA1 261816Z 20009G14KT 31/05 A2999 RMK A01 T03090047  RH  019%=      5-min Rain = 0
KVA1 261817Z 19011KT 31/05 A2999 RMK A01 T03090048  RH  019%=      5-min Rain = 0
KVA1 261818Z 19011KT 31/05 A2999 RMK A01 T03100050  RH  019%=      5-min Rain = 0
KVA1 261819Z 20011KT 31/05 A2999 RMK A01 T03100051  RH  020%=      5-min Rain = 0
KVA1 261820Z 21009KT 31/05 A2999 RMK A01 T03090052  RH  020%=      5-min Rain = 0
KVA1 261821Z 21011KT 31/05 A2999 RMK A01 T03100054  RH  020%=      5-min Rain = 0
KVA1 261822Z 22009KT 31/06 A2999 RMK A01 T03100055  RH  020%=      5-min Rain = 0
KVA1 261823Z 22011KT 31/06 A2999 RMK A01 T03100056  RH  020%=      5-min Rain = 0
KVA1 261824Z 22011KT 31/06 A2999 RMK A01 T03100057  RH  020%=      5-min Rain = 0
KVA1 261825Z 22012KT 31/06 A2999 RMK A01 T03100056  RH  020%=      5-min Rain = 0
KVA1 261826Z 21012KT 31/05 A2999 RMK A01 T03090054  RH  020%=      5-min Rain = 0
KVA1 261827Z 20011KT 31/06 A2999 RMK A01 T03090057  RH  020%=      5-min Rain = 0
KVA1 261828Z 18010KT 31/07 A2999 RMK A01 T03100071  RH  022%=      5-min Rain = 0
KVA1 261829Z 16011KT 31/08 A2999 RMK A01 T03090078  RH  024%=      5-min Rain = 0
KVA1 261830Z 18011KT 31/08 A2999 RMK A01 T03090079  RH  024%=      5-min Rain = 0
KVA1 261831Z 19010G15KT 31/08 A2999 RMK A01 T03110076  RH  023%=      5-min Rain = 0
KVA1 261832Z 19008KT 31/07 A2999 RMK A01 T03110065  RH  021%=      5-min Rain = 0
KVA1 261833Z 17010KT 31/08 A2999 RMK A01 T03110076  RH  023%=      5-min Rain = 0
KVA1 261834Z 18010KT 31/08 A2999 RMK A01 T03120079  RH  024%=      5-min Rain = 0
KVA1 261835Z 18010KT 31/08 A2999 RMK A01 T03120076  RH  023%=      5-min Rain = 0
KVA1 261836Z 18011KT 31/08 A2999 RMK A01 T03100076  RH  023%=      5-min Rain = 0
KVA1 261837Z 18011KT 31/08 A2999 RMK A01 T03080075  RH  023%=      5-min Rain = 0
KVA1 261838Z 20011KT 31/08 A2999 RMK A01 T03080076  RH  024%=      5-min Rain = 0
KVA1 261839Z 18010KT 31/08 A2999 RMK A01 T03080076  RH  023%=      5-min Rain = 0
KVA1 261840Z 17010KT 31/08 A2999 RMK A01 T03080076  RH  023%=      5-min Rain = 0
KVA1 261841Z 18010KT 31/07 A2998 RMK A01 T03100074  RH  023%=      5-min Rain = 0
KVA1 261842Z 18010KT 31/07 A2998 RMK A01 T03110073  RH  023%=      5-min Rain = 0
KVA1 261843Z 19011KT 31/07 A2998 RMK A01 T03120071  RH  022%=      5-min Rain = 0
KVA1 261844Z 19012KT 31/07 A2998 RMK A01 T03110070  RH  022%=      5-min Rain = 0
KVA1 261845Z 16010KT 31/07 A2998 RMK A01 T03110068  RH  022%=      5-min Rain = 0
KVA1 261846Z 16009KT 31/07 A2998 RMK A01 T03120068  RH  022%=      5-min Rain = 0
KVA1 261847Z 16011KT 31/07 A2998 RMK A01 T03140067  RH  021%=      5-min Rain = 0
KVA1 261848Z 16011KT 31/07 A2998 RMK A01 T03140066  RH  021%=      5-min Rain = 0
KVA1 261849Z 16012G17KT 31/07 A2998 RMK A01 T03130067  RH  021%=      5-min Rain = 0
KVA1 261850Z 16016KT 31/07 A2998 RMK A01 T03130069  RH  022%=      5-min Rain = 0
KVA1 261851Z 17012KT 31/07 A2998 RMK A01 T03120069  RH  022%=      5-min Rain = 0
KVA1 261852Z 16010KT 31/07 A2998 RMK A01 T03120068  RH  022%=      5-min Rain = 0
KVA1 261853Z 16010KT 31/07 A2998 RMK A01 T03120066  RH  021%=      5-min Rain = 0
KVA1 261854Z 17014KT 31/07 A2998 RMK A01 T03120065  RH  021%=      5-min Rain = 0
KVA1 261855Z 16013KT 31/06 A2998 RMK A01 T03110061  RH  021%=      5-min Rain = 0
KVA1 261856Z 17014KT 31/06 A2998 RMK A01 T03110060  RH  021%=      5-min Rain = 0
KVA1 261857Z 16012KT 31/06 A2998 RMK A01 T03100056  RH  020%=      5-min Rain = 0
KVA1 261858Z 17014KT 31/06 A2998 RMK A01 T03100057  RH  020%=      5-min Rain = 0
KVA1 261859Z 17015KT 31/06 A2998 RMK A01 T03110057  RH  020%=      5-min Rain = 0
KVA1 261900Z 17013KT 31/06 A2998 RMK A01 T03100058  RH  021%=      5-min Rain = 0
KVA1 261901Z 18010KT 31/06 A2998 RMK A01 T03100060  RH  021%=      5-min Rain = 0
KVA1 261902Z 18007KT 31/06 A2998 RMK A01 T03090060  RH  021%=      5-min Rain = 0
KVA1 261903Z 16009KT 31/06 A2998 RMK A01 T03100061  RH  021%=      5-min Rain = 0
KVA1 261904Z 16012KT 31/06 A2998 RMK A01 T03130057  RH  020%=      5-min Rain = 0
KVA1 261905Z 17012KT 31/05 A2998 RMK A01 T03140046  RH  019%=      5-min Rain = 0
KVA1 261906Z 19013KT 32/04 A2997 RMK A01 T03160039  RH  017%=      5-min Rain = 0
KVA1 261907Z 19010KT 32/04 A2997 RMK A01 T03150035  RH  017%=      5-min Rain = 0
KVA1 261908Z 19012KT 32/04 A2997 RMK A01 T03150042  RH  018%=      5-min Rain = 0
KVA1 261909Z 18010KT 32/05 A2998 RMK A01 T03160050  RH  019%=      5-min Rain = 0
KVA1 261910Z 19011KT 32/06 A2997 RMK A01 T03170056  RH  019%=      5-min Rain = 0
KVA1 261911Z 18011KT 32/06 A2997 RMK A01 T03170058  RH  020%=      5-min Rain = 0
KVA1 261912Z 17014KT 32/06 A2997 RMK A01 T03170059  RH  020%=      5-min Rain = 0
KVA1 261913Z 18015KT 32/06 A2997 RMK A01 T03180059  RH  020%=      5-min Rain = 0
KVA1 261914Z 18017G22KT 32/06 A2997 RMK A01 T03180061  RH  020%=      5-min Rain = 0
KVA1 261915Z 18017KT 32/06 A2997 RMK A01 T03180060  RH  020%=      5-min Rain = 0
KVA1 261916Z 17014G19KT 32/06 A2997 RMK A01 T03160061  RH  020%=      5-min Rain = 0
KVA1 261917Z 19015G20KT 32/05 A2997 RMK A01 T03170053  RH  019%=      5-min Rain = 0
KVA1 261918Z 17010G15KT 32/05 A2997 RMK A01 T03150048  RH  019%=      5-min Rain = 0
KVA1 261919Z 16014G19KT 31/05 A2997 RMK A01 T03140047  RH  019%=      5-min Rain = 0
KVA1 261920Z 16013KT 31/05 A2997 RMK A01 T03130048  RH  019%=      5-min Rain = 0
KVA1 261921Z 16014KT 31/05 A2997 RMK A01 T03140050  RH  019%=      5-min Rain = 0
KVA1 261922Z 17011KT 31/05 A2997 RMK A01 T03140049  RH  019%=      5-min Rain = 0
KVA1 261923Z 17009KT 32/05 A2997 RMK A01 T03150052  RH  019%=      5-min Rain = 0
KVA1 261924Z 18012KT 32/05 A2997 RMK A01 T03160053  RH  019%=      5-min Rain = 0
KVA1 261925Z 18012KT 32/06 A2997 RMK A01 T03170055  RH  019%=      5-min Rain = 0
KVA1 261926Z 18014KT 32/06 A2997 RMK A01 T03160056  RH  020%=      5-min Rain = 0
KVA1 261927Z 16013KT 32/06 A2997 RMK A01 T03150056  RH  020%=      5-min Rain = 0
KVA1 261928Z 16015KT 32/05 A2997 RMK A01 T03150054  RH  019%=      5-min Rain = 0
KVA1 261929Z 17012KT 32/05 A2997 RMK A01 T03160052  RH  019%=      5-min Rain = 0
KVA1 261930Z 18016KT 32/05 A2997 RMK A01 T03170051  RH  019%=      5-min Rain = 0
KVA1 261931Z 19013KT 32/05 A2997 RMK A01 T03170048  RH  018%=      5-min Rain = 0
KVA1 261932Z 17011KT 31/05 A2997 RMK A01 T03140048  RH  019%=      5-min Rain = 0
KVA1 261933Z 17011KT 31/05 A2997 RMK A01 T03140050  RH  019%=      5-min Rain = 0
KVA1 261934Z 16010KT 31/05 A2997 RMK A01 T03130050  RH  019%=      5-min Rain = 0
KVA1 261935Z 16014KT 32/05 A2997 RMK A01 T03160049  RH  019%=      5-min Rain = 0
KVA1 261936Z 17013KT 32/05 A2997 RMK A01 T03180047  RH  018%=      5-min Rain = 0
KVA1 261937Z 18012KT 32/05 A2997 RMK A01 T03190049  RH  018%=      5-min Rain = 0
KVA1 261938Z 19011KT 32/05 A2996 RMK A01 T03190052  RH  019%=      5-min Rain = 0
KVA1 261939Z 18014KT 32/05 A2996 RMK A01 T03180052  RH  019%=      5-min Rain = 0
KVA1 261940Z 20015KT 32/05 A2996 RMK A01 T03180054  RH  019%=      5-min Rain = 0
KVA1 261941Z 20015KT 32/05 A2996 RMK A01 T03180047  RH  018%=      5-min Rain = 0
KVA1 261942Z 21013KT 32/05 A2996 RMK A01 T03170045  RH  018%=      5-min Rain = 0
KVA1 261943Z 20011KT 32/05 A2996 RMK A01 T03160045  RH  018%=      5-min Rain = 0
KVA1 261944Z 19013KT 32/05 A2996 RMK A01 T03160045  RH  018%=      5-min Rain = 0
KVA1 261945Z 20010KT 32/05 A2996 RMK A01 T03150046  RH  018%=      5-min Rain = 0
KVA1 261946Z 19009KT 32/05 A2996 RMK A01 T03160053  RH  019%=      5-min Rain = 0
KVA1 261947Z 18013KT 32/06 A2996 RMK A01 T03190055  RH  019%=      5-min Rain = 0
KVA1 261948Z 19009G15KT 32/05 A2996 RMK A01 T03220052  RH  018%=      5-min Rain = 0
KVA1 261949Z 19013KT 32/05 A2996 RMK A01 T03230050  RH  018%=      5-min Rain = 0
KVA1 261950Z 20013KT 32/05 A2996 RMK A01 T03230046  RH  018%=      5-min Rain = 0
KVA1 261951Z 20014KT 32/05 A2996 RMK A01 T03210048  RH  018%=      5-min Rain = 0
KVA1 261952Z 21017KT 32/05 A2996 RMK A01 T03200052  RH  019%=      5-min Rain = 0
KVA1 261953Z 20014KT 32/05 A2996 RMK A01 T03200052  RH  019%=      5-min Rain = 0
KVA1 261954Z 20013KT 32/05 A2996 RMK A01 T03180054  RH  019%=      5-min Rain = 0
KVA1 261955Z 19007KT 32/06 A2996 RMK A01 T03180055  RH  019%=      5-min Rain = 0
KVA1 261956Z 17010KT 32/06 A2996 RMK A01 T03190056  RH  019%=      5-min Rain = 0
KVA1 261957Z 19017KT 32/05 A2996 RMK A01 T03200054  RH  019%=      5-min Rain = 0
KVA1 261958Z 19017KT 32/05 A2996 RMK A01 T03200049  RH  018%=      5-min Rain = 0
KVA1 261959Z 20015KT 32/05 A2996 RMK A01 T03190049  RH  018%=      5-min Rain = 0
KVA1 262000Z 19013G18KT 32/05 A2996 RMK A01 T03180053  RH  019%=      5-min Rain = 0
KVA1 262001Z 19013KT 32/06 A2996 RMK A01 T03180057  RH  019%=      5-min Rain = 0
KVA1 262002Z 20013KT 32/06 A2996 RMK A01 T03180059  RH  020%=      5-min Rain = 0
KVA1 262003Z 19016KT 32/06 A2996 RMK A01 T03180059  RH  020%=      5-min Rain = 0
KVA1 262004Z 20014G19KT 32/06 A2996 RMK A01 T03170058  RH  020%=      5-min Rain = 0
KVA1 262005Z 21016G22KT 32/06 A2996 RMK A01 T03170058  RH  020%=      5-min Rain = 0
KVA1 262006Z 20018G23KT 32/05 A2996 RMK A01 T03180048  RH  018%=      5-min Rain = 0
KVA1 262007Z 20018KT 32/05 A2996 RMK A01 T03190047  RH  018%=      5-min Rain = 0
KVA1 262008Z 20017KT 32/05 A2996 RMK A01 T03190049  RH  018%=      5-min Rain = 0
KVA1 262009Z 21018KT 32/05 A2996 RMK A01 T03170049  RH  019%=      5-min Rain = 0
KVA1 262010Z 21016G21KT 32/05 A2996 RMK A01 T03160048  RH  019%=      5-min Rain = 0
KVA1 262011Z 20015KT 32/05 A2995 RMK A01 T03150051  RH  019%=      5-min Rain = 0
KVA1 262012Z 19017G23KT 32/05 A2995 RMK A01 T03170052  RH  019%=      5-min Rain = 0
KVA1 262013Z 20014G19KT 32/05 A2995 RMK A01 T03170049  RH  018%=      5-min Rain = 0
KVA1 262014Z 20017KT 32/05 A2995 RMK A01 T03190048  RH  018%=      5-min Rain = 0
KVA1 262015Z 20016G21KT 32/04 A2995 RMK A01 T03200044  RH  018%=      5-min Rain = 0
KVA1 262016Z 20014G20KT 32/04 A2995 RMK A01 T03200044  RH  018%=      5-min Rain = 0
KVA1 262017Z 20014KT 32/04 A2995 RMK A01 T03190044  RH  018%=      5-min Rain = 0
KVA1 262018Z 19010G15KT 32/05 A2995 RMK A01 T03170045  RH  018%=      5-min Rain = 0
KVA1 262019Z 20010G15KT 32/05 A2995 RMK A01 T03180047  RH  018%=      5-min Rain = 0
KVA1 262020Z 22014G19KT 32/05 A2995 RMK A01 T03200050  RH  018%=      5-min Rain = 0
KVA1 262021Z 21016KT 32/05 A2995 RMK A01 T03220051  RH  018%=      5-min Rain = 0
KVA1 262022Z 21015KT 32/05 A2995 RMK A01 T03190051  RH  019%=      5-min Rain = 0
KVA1 262023Z 19016G23KT 32/05 A2995 RMK A01 T03190049  RH  018%=      5-min Rain = 0
KVA1 262024Z 18021G26KT 32/05 A2995 RMK A01 T03210046  RH  018%=      5-min Rain = 0
KVA1 262025Z 19020G26KT 32/04 A2995 RMK A01 T03220035  RH  016%=      5-min Rain = 0
KVA1 262026Z 18016KT 32/03 A2995 RMK A01 T03220033  RH  016%=      5-min Rain = 0
KVA1 262027Z 19019G26KT 32/03 A2995 RMK A01 T03230034  RH  016%=      5-min Rain = 0
KVA1 262028Z 19014G21KT 32/04 A2995 RMK A01 T03220035  RH  016%=      5-min Rain = 0
KVA1 262029Z 19014G26KT 32/04 A2995 RMK A01 T03220039  RH  017%=      5-min Rain = 0
KVA1 262030Z 19020G26KT 32/04 A2995 RMK A01 T03240036  RH  016%=      5-min Rain = 0
KVA1 262031Z 19021KT 32/04 A2995 RMK A01 T03240038  RH  017%=      5-min Rain = 0
KVA1 262032Z 19016KT 32/04 A2995 RMK A01 T03230038  RH  017%=      5-min Rain = 0
KVA1 262033Z 18013KT 32/04 A2995 RMK A01 T03240041  RH  017%=      5-min Rain = 0
KVA1 262034Z 20012KT 33/04 A2994 RMK A01 T03250040  RH  017%=      5-min Rain = 0
KVA1 262035Z 20016G21KT 33/04 A2994 RMK A01 T03250040  RH  017%=      5-min Rain = 0
KVA1 262036Z 20014G19KT 33/04 A2994 RMK A01 T03250041  RH  017%=      5-min Rain = 0
KVA1 262037Z 20018G23KT 33/04 A2994 RMK A01 T03260041  RH  017%=      5-min Rain = 0
KVA1 262038Z 19019G25KT 33/04 A2994 RMK A01 T03250042  RH  017%=      5-min Rain = 0
KVA1 262039Z 20014KT 32/04 A2994 RMK A01 T03240043  RH  017%=      5-min Rain = 0
KVA1 262040Z 20014G21KT 32/04 A2994 RMK A01 T03230044  RH  017%=      5-min Rain = 0
KVA1 262041Z 20017KT 33/05 A2994 RMK A01 T03250047  RH  017%=      5-min Rain = 0
KVA1 262042Z 20018G23KT 33/04 A2994 RMK A01 T03260044  RH  017%=      5-min Rain = 0
KVA1 262043Z 19016KT 32/04 A2994 RMK A01 T03240044  RH  017%=      5-min Rain = 0
KVA1 262044Z 20018G23KT 33/04 A2994 RMK A01 T03250041  RH  017%=      5-min Rain = 0
KVA1 262045Z 20022G27KT 33/04 A2994 RMK A01 T03260038  RH  016%=      5-min Rain = 0
KVA1 262046Z 20017KT 33/04 A2994 RMK A01 T03250037  RH  016%=      5-min Rain = 0
KVA1 262047Z 20014G19KT 32/04 A2994 RMK A01 T03240038  RH  016%=      5-min Rain = 0
KVA1 262048Z 18011KT 33/04 A2994 RMK A01 T03250039  RH  016%=      5-min Rain = 0
KVA1 262049Z 18013G19KT 33/05 A2994 RMK A01 T03290047  RH  017%=      5-min Rain = 0
KVA1 262050Z 18016G22KT 33/05 A2994 RMK A01 T03310047  RH  017%=      5-min Rain = 0
KVA1 262051Z 18015KT 33/05 A2994 RMK A01 T03290046  RH  017%=      5-min Rain = 0
KVA1 262052Z 19017G23KT 33/04 A2994 RMK A01 T03290039  RH  016%=      5-min Rain = 0
KVA1 262053Z 18019G25KT 33/02 A2994 RMK A01 T03290021  RH  014%=      5-min Rain = 0
KVA1 262054Z 19022KT 33/02 A2993 RMK A01 T03300017  RH  014%=      5-min Rain = 0
KVA1 262055Z 19017KT 33/02 A2994 RMK A01 T03310015  RH  013%=      5-min Rain = 0
KVA1 262056Z 20015G22KT 33/02 A2993 RMK A01 T03330017  RH  014%=      5-min Rain = 0
KVA1 262057Z 19018G24KT 33/02 A2993 RMK A01 T03340017  RH  013%=      5-min Rain = 0
KVA1 262058Z 20020KT 33/01 A2993 RMK A01 T03340013  RH  013%=      5-min Rain = 0
KVA1 262059Z 20018G24KT 33/01 A2994 RMK A01 T03320012  RH  013%=      5-min Rain = 0
KVA1 262100Z 20017G23KT 33/01 A2993 RMK A01 T03320012  RH  013%=      5-min Rain = 0
KVA1 262101Z 21017KT 33/01 A2994 RMK A01 T03340014  RH  013%=      5-min Rain = 0
KVA1 262102Z 21013G19KT 34/01 A2993 RMK A01 T03360012  RH  013%=      5-min Rain = 0
KVA1 262103Z 20016KT 34/01 A2993 RMK A01 T03360013  RH  013%=      5-min Rain = 0
KVA1 262104Z 19016KT 34/01 A2993 RMK A01 T03370009  RH  013%=      5-min Rain = 0
KVA1 262105Z 20015KT 34/01 A2993 RMK A01 T03360009  RH  013%=      5-min Rain = 0
KVA1 262106Z 21019G27KT 34/01 A2993 RMK A01 T03360009  RH  013%=      5-min Rain = 0
KVA1 262107Z 21017G22KT 34/01 A2993 RMK A01 T03360005  RH  012%=      5-min Rain = 0
KVA1 262108Z 22018G24KT 34/01 A2994 RMK A01 T03400006  RH  012%=      5-min Rain = 0
KVA1 262109Z 21019G26KT 34/00 A2993 RMK A01 T03420001  RH  011%=      5-min Rain = 0
KVA1 262110Z 22018G25KT 34/00 A2993 RMK A01 T03410003  RH  012%=      5-min Rain = 0
KVA1 262111Z 21016KT 34/00 A2993 RMK A01 T03360002  RH  012%=      5-min Rain = 0
KVA1 262112Z 21017KT 34/01 A2993 RMK A01 T03360006  RH  012%=      5-min Rain = 0
KVA1 262113Z 22019KT 34/01 A2993 RMK A01 T03380007  RH  012%=      5-min Rain = 0
KVA1 262114Z 21021G26KT 34/01 A2993 RMK A01 T03350005  RH  012%=      5-min Rain = 0
KVA1 262115Z 22020G25KT 33/01 A2993 RMK A01 T03320008  RH  013%=      5-min Rain = 0
KVA1 262116Z 22017G24KT 33/01 A2993 RMK A01 T03310009  RH  013%=      5-min Rain = 0
KVA1 262117Z 22022G27KT 33/01 A2993 RMK A01 T03300010  RH  013%=      5-min Rain = 0
KVA1 262118Z 22017KT 33/01 A2993 RMK A01 T03300010  RH  013%=      5-min Rain = 0
KVA1 262119Z 21016KT 33/01 A2993 RMK A01 T03300011  RH  013%=      5-min Rain = 0
KVA1 262120Z 21017KT 33/01 A2993 RMK A01 T03290011  RH  013%=      5-min Rain = 0
KVA1 262121Z 21016G21KT 33/01 A2993 RMK A01 T03300012  RH  013%=      5-min Rain = 0
KVA1 262122Z 22015G20KT 33/01 A2993 RMK A01 T03310012  RH  013%=      5-min Rain = 0
KVA1 262123Z 22014KT 33/01 A2993 RMK A01 T03310012  RH  013%=      5-min Rain = 0
KVA1 262124Z 21015KT 33/01 A2993 RMK A01 T03330013  RH  013%=      5-min Rain = 0
KVA1 262125Z 21018KT 34/01 A2993 RMK A01 T03350014  RH  013%=      5-min Rain = 0
KVA1 262126Z 20019KT 33/01 A2993 RMK A01 T03320011  RH  013%=      5-min Rain = 0
KVA1 262127Z 21016KT 33/01 A2992 RMK A01 T03310011  RH  013%=      5-min Rain = 0
KVA1 262128Z 20016KT 33/01 A2992 RMK A01 T03300012  RH  013%=      5-min Rain = 0
KVA1 262129Z 21011KT 33/01 A2992 RMK A01 T03310013  RH  013%=      5-min Rain = 0
KVA1 262130Z 20015G21KT 34/02 A2992 RMK A01 T03350016  RH  013%=      5-min Rain = 0
KVA1 262131Z 20017G22KT 34/01 A2992 RMK A01 T03360013  RH  013%=      5-min Rain = 0
KVA1 262132Z 20017KT 34/01 A2992 RMK A01 T03350013  RH  013%=      5-min Rain = 0
KVA1 262133Z 21019G24KT 33/01 A2992 RMK A01 T03340011  RH  013%=      5-min Rain = 0
KVA1 262134Z 20023G28KT 34/01 A2992 RMK A01 T03350005  RH  012%=      5-min Rain = 0
KVA1 262135Z 21020KT 33/00 A2992 RMK A01 T03340002  RH  012%=      5-min Rain = 0
KVA1 262136Z 21018G23KT 34/00 A2992 RMK A01 T03350003  RH  012%=      5-min Rain = 0
KVA1 262137Z 22015G21KT 34/00 A2992 RMK A01 T03370003  RH  012%=      5-min Rain = 0
KVA1 262138Z 21015G21KT 34/00 A2992 RMK A01 T03350001  RH  012%=      5-min Rain = 0
KVA1 262139Z 21018G26KT 33/00 A2991 RMK A01 T03340003  RH  012%=      5-min Rain = 0
KVA1 262140Z 21023KT 33/00 A2991 RMK A01 T03340001  RH  012%=      5-min Rain = 0
KVA1 262141Z 20022G31KT 33/00 A2991 RMK A01 T03340003  RH  012%=      5-min Rain = 0
KVA1 262142Z 20021KT 33/00 A2991 RMK A01 T03340004  RH  012%=      5-min Rain = 0
KVA1 262143Z 19020G26KT 33/01 A2991 RMK A01 T03330005  RH  012%=      5-min Rain = 0
KVA1 262144Z 19018G23KT 33/00 A2991 RMK A01 T03330004  RH  012%=      5-min Rain = 0
KVA1 262145Z 20016KT 33/01 A2991 RMK A01 T03340005  RH  012%=      5-min Rain = 0
KVA1 262146Z 20018G24KT 34/00 A2991 RMK A01 T03360004  RH  012%=      5-min Rain = 0
KVA1 262147Z 21022G30KT 34/00 A2991 RMK A01 T03360004  RH  012%=      5-min Rain = 0
KVA1 262148Z 22017KT 34/01 A2991 RMK A01 T03350006  RH  012%=      5-min Rain = 0
KVA1 262149Z 21013KT 33/01 A2991 RMK A01 T03340008  RH  013%=      5-min Rain = 0
KVA1 262150Z 21011G16KT 34/01 A2991 RMK A01 T03370010  RH  013%=      5-min Rain = 0
KVA1 262151Z 22021G27KT 34/01 A2991 RMK A01 T03390006  RH  012%=      5-min Rain = 0
KVA1 262152Z 21018KT 34/M00 A2991 RMK A01 T03371001  RH  012%=      5-min Rain = 0
KVA1 262153Z 21022G28KT 34/00 A2991 RMK A01 T03380002  RH  012%=      5-min Rain = 0
KVA1 262154Z 21024G29KT 34/M00 A2991 RMK A01 T03371001  RH  012%=      5-min Rain = 0
KVA1 262155Z 22020G26KT 33/M00 A2991 RMK A01 T03331001  RH  012%=      5-min Rain = 0
KVA1 262156Z 21019G27KT 33/00 A2991 RMK A01 T03330000  RH  012%=      5-min Rain = 0
KVA1 262157Z 23018KT 34/00 A2991 RMK A01 T03350003  RH  012%=      5-min Rain = 0
KVA1 262158Z 23018KT 34/00 A2991 RMK A01 T03360002  RH  012%=      5-min Rain = 0
KVA1 262159Z 23020G25KT 33/00 A2991 RMK A01 T03340001  RH  012%=      5-min Rain = 0
KVA1 262200Z 23015KT 33/00 A2991 RMK A01 T03320000  RH  012%=      5-min Rain = 0
KVA1 262201Z 21012G17KT 33/00 A2991 RMK A01 T03340002  RH  012%=      5-min Rain = 0
KVA1 262202Z 19015KT 34/01 A2991 RMK A01 T03380005  RH  012%=      5-min Rain = 0
KVA1 262203Z 20015G20KT 34/01 A2991 RMK A01 T03420005  RH  012%=      5-min Rain = 0
KVA1 262204Z 20022G29KT 34/00 A299 RMK A01 T03430002  RH  011%=      5-min Rain = 0
KVA1 262205Z 21017G24KT 34/M00 A2991 RMK A01 T03411001  RH  011%=      5-min Rain = 0
KVA1 262206Z 21021KT 34/M00 A299 RMK A01 T03411001  RH  011%=      5-min Rain = 0
KVA1 262207Z 21020KT 34/00 A299 RMK A01 T03390000  RH  012%=      5-min Rain = 0
KVA1 262208Z 21017G24KT 34/00 A2991 RMK A01 T03390003  RH  012%=      5-min Rain = 0
KVA1 262209Z 21020G26KT 34/01 A299 RMK A01 T03410005  RH  012%=      5-min Rain = 0
KVA1 262210Z 20022G29KT 34/01 A299 RMK A01 T03400006  RH  012%=      5-min Rain = 0
KVA1 262211Z 19018KT 34/01 A299 RMK A01 T03380005  RH  012%=      5-min Rain = 0
KVA1 262212Z 21018KT 34/01 A299 RMK A01 T03370006  RH  012%=      5-min Rain = 0
KVA1 262213Z 21020G27KT 34/01 A299 RMK A01 T03370009  RH  012%=      5-min Rain = 0
KVA1 262214Z 22018KT 34/01 A299 RMK A01 T03380009  RH  012%=      5-min Rain = 0
KVA1 262215Z 21016G21KT 34/01 A299 RMK A01 T03390008  RH  012%=      5-min Rain = 0
KVA1 262216Z 21015G20KT 34/01 A299 RMK A01 T03390009  RH  012%=      5-min Rain = 0
KVA1 262217Z 21017KT 34/01 A299 RMK A01 T03410009  RH  012%=      5-min Rain = 0
KVA1 262218Z 20017G22KT 34/01 A299 RMK A01 T03410009  RH  012%=      5-min Rain = 0
KVA1 262219Z 20015G20KT 34/01 A299 RMK A01 T03410008  RH  012%=      5-min Rain = 0
KVA1 262220Z 20019G24KT 34/01 A299 RMK A01 T03400007  RH  012%=      5-min Rain = 0
KVA1 262221Z 20018KT 34/01 A299 RMK A01 T03370005  RH  012%=      5-min Rain = 0
KVA1 262222Z 23016KT 34/01 A299 RMK A01 T03360005  RH  012%=      5-min Rain = 0
KVA1 262223Z 22016KT 34/01 A299 RMK A01 T03360006  RH  012%=      5-min Rain = 0
KVA1 262224Z 22014KT 34/01 A299 RMK A01 T03350007  RH  012%=      5-min Rain = 0
KVA1 262225Z 22013KT 34/01 A299 RMK A01 T03360007  RH  012%=      5-min Rain = 0
KVA1 262226Z 21013KT 34/01 A299 RMK A01 T03370009  RH  012%=      5-min Rain = 0
KVA1 262227Z 22018G23KT 34/01 A299 RMK A01 T03400007  RH  012%=      5-min Rain = 0
KVA1 262228Z 22016KT 34/01 A299 RMK A01 T03390006  RH  012%=      5-min Rain = 0
KVA1 262229Z 21021G26KT 34/01 A299 RMK A01 T03400005  RH  012%=      5-min Rain = 0
KVA1 262230Z 20019KT 34/00 A2989 RMK A01 T03360004  RH  012%=      5-min Rain = 0
KVA1 262231Z 21015KT 34/01 A2989 RMK A01 T03350006  RH  012%=      5-min Rain = 0
KVA1 262232Z 21018G24KT 34/01 A2989 RMK A01 T03360006  RH  012%=      5-min Rain = 0
KVA1 262233Z 21020G28KT 34/01 A2989 RMK A01 T03380006  RH  012%=      5-min Rain = 0
KVA1 262234Z 19018KT 34/01 A2989 RMK A01 T03370005  RH  012%=      5-min Rain = 0
KVA1 262235Z 20018KT 34/01 A2989 RMK A01 T03370006  RH  012%=      5-min Rain = 0
KVA1 262236Z 20019G24KT 34/01 A2989 RMK A01 T03350005  RH  012%=      5-min Rain = 0
KVA1 262237Z 20017G22KT 34/01 A2989 RMK A01 T03350005  RH  012%=      5-min Rain = 0
KVA1 262238Z 19018G24KT 34/01 A2989 RMK A01 T03360007  RH  012%=      5-min Rain = 0
KVA1 262239Z 19019KT 34/01 A2988 RMK A01 T03360005  RH  012%=      5-min Rain = 0
KVA1 262240Z 18015KT 34/00 A2988 RMK A01 T03350004  RH  012%=      5-min Rain = 0
KVA1 262241Z 19017G22KT 34/01 A2988 RMK A01 T03350006  RH  012%=      5-min Rain = 0
KVA1 262242Z 21021G29KT 34/01 A2988 RMK A01 T03350006  RH  012%=      5-min Rain = 0
KVA1 262243Z 20019G28KT 34/00 A2988 RMK A01 T03350004  RH  012%=      5-min Rain = 0
KVA1 262244Z 21022G28KT 34/01 A2988 RMK A01 T03350005  RH  012%=      5-min Rain = 0
KVA1 262245Z 20023G28KT 34/00 A2988 RMK A01 T03360004  RH  012%=      5-min Rain = 0
KVA1 262246Z 20019G24KT 34/00 A2988 RMK A01 T03350004  RH  012%=      5-min Rain = 0
KVA1 262247Z 21021G26KT 34/00 A2988 RMK A01 T03350003  RH  012%=      5-min Rain = 0
KVA1 262248Z 20018G27KT 34/00 A2988 RMK A01 T03350003  RH  012%=      5-min Rain = 0
KVA1 262249Z 21017G23KT 34/01 A2988 RMK A01 T03350005  RH  012%=      5-min Rain = 0
KVA1 262250Z 21018KT 34/00 A2988 RMK A01 T03350003  RH  012%=      5-min Rain = 0
KVA1 262251Z 21016KT 33/00 A2988 RMK A01 T03340002  RH  012%=      5-min Rain = 0
KVA1 262252Z 20015KT 33/00 A2988 RMK A01 T03320003  RH  012%=      5-min Rain = 0
KVA1 262253Z 18018KT 33/00 A2988 RMK A01 T03320003  RH  012%=      5-min Rain = 0
KVA1 262254Z 20016KT 33/01 A2987 RMK A01 T03330005  RH  012%=      5-min Rain = 0
KVA1 262255Z 22015KT 34/00 A2988 RMK A01 T03350004  RH  012%=      5-min Rain = 0
KVA1 262256Z 22014G19KT 34/00 A2987 RMK A01 T03350004  RH  012%=      5-min Rain = 0
KVA1 262257Z 20016KT 34/00 A2987 RMK A01 T03360004  RH  012%=      5-min Rain = 0
KVA1 262258Z 19014KT 34/01 A2987 RMK A01 T03360006  RH  012%=      5-min Rain = 0
KVA1 262259Z 19017G22KT 34/01 A2987 RMK A01 T03380006  RH  012%=      5-min Rain = 0
KVA1 262300Z 18016G22KT 34/01 A2987 RMK A01 T03370005  RH  012%=      5-min Rain = 0
KVA1 262301Z 18019KT 34/00 A2987 RMK A01 T03370004  RH  012%=      5-min Rain = 0
KVA1 262302Z 17021KT 34/00 A2987 RMK A01 T03370004  RH  012%=      5-min Rain = 0
KVA1 262303Z 19018KT 33/00 A2987 RMK A01 T03340002  RH  012%=      5-min Rain = 0
KVA1 262304Z 19014G19KT 33/01 A2987 RMK A01 T03330006  RH  012%=      5-min Rain = 0
KVA1 262305Z 20014KT 33/01 A2987 RMK A01 T03340007  RH  012%=      5-min Rain = 0
KVA1 262306Z 19013KT 34/01 A2987 RMK A01 T03370008  RH  012%=      5-min Rain = 0
KVA1 262307Z 20017G24KT 34/01 A2987 RMK A01 T03390007  RH  012%=      5-min Rain = 0
KVA1 262308Z 20016G21KT 34/00 A2987 RMK A01 T03380002  RH  012%=      5-min Rain = 0
KVA1 262309Z 21016KT 34/00 A2987 RMK A01 T03360002  RH  012%=      5-min Rain = 0
KVA1 262310Z 20014KT 34/00 A2987 RMK A01 T03350003  RH  012%=      5-min Rain = 0
KVA1 262311Z 20015KT 34/00 A2987 RMK A01 T03360004  RH  012%=      5-min Rain = 0
KVA1 262312Z 19015G20KT 34/00 A2987 RMK A01 T03370004  RH  012%=      5-min Rain = 0
KVA1 262313Z 20013G19KT 34/00 A2987 RMK A01 T03380003  RH  012%=      5-min Rain = 0
KVA1 262314Z 20016KT 34/00 A2987 RMK A01 T03400004  RH  012%=      5-min Rain = 0
KVA1 262315Z 21018KT 34/00 A2987 RMK A01 T03390001  RH  012%=      5-min Rain = 0
KVA1 262316Z 22015G20KT 34/00 A2987 RMK A01 T033700-0  RH  012%=      5-min Rain = 0
KVA1 262317Z 20016KT 34/00 A2987 RMK A01 T03360001  RH  012%=      5-min Rain = 0
KVA1 262318Z 20017KT 34/00 A2987 RMK A01 T03350000  RH  012%=      5-min Rain = 0
KVA1 262319Z 20014KT 34/00 A2987 RMK A01 T03350003  RH  012%=      5-min Rain = 0
KVA1 262320Z 20017KT 34/00 A2987 RMK A01 T03360004  RH  012%=      5-min Rain = 0
KVA1 262321Z 19014G19KT 34/00 A2987 RMK A01 T03370004  RH  012%=      5-min Rain = 0
KVA1 262322Z 19018G24KT 34/00 A2986 RMK A01 T03370003  RH  012%=      5-min Rain = 0
KVA1 262323Z 20017G23KT 34/00 A2986 RMK A01 T03370004  RH  012%=      5-min Rain = 0
KVA1 262324Z 19018KT 34/00 A2986 RMK A01 T03360004  RH  012%=      5-min Rain = 0
KVA1 262325Z 19018G24KT 34/00 A2986 RMK A01 T03360004  RH  012%=      5-min Rain = 0
KVA1 262326Z 19016KT 34/00 A2987 RMK A01 T03350004  RH  012%=      5-min Rain = 0
KVA1 262327Z 19018G24KT 33/01 A2987 RMK A01 T03340005  RH  012%=      5-min Rain = 0
KVA1 262328Z 20016KT 33/00 A2986 RMK A01 T03340004  RH  012%=      5-min Rain = 0
KVA1 262329Z 20018G23KT 33/01 A2986 RMK A01 T03340005  RH  012%=      5-min Rain = 0
KVA1 262330Z 19014G20KT 33/00 A2986 RMK A01 T03340004  RH  012%=      5-min Rain = 0
KVA1 262331Z 20014KT 33/00 A2986 RMK A01 T03330004  RH  012%=      5-min Rain = 0
KVA1 262332Z 20014KT 33/01 A2986 RMK A01 T03330005  RH  012%=      5-min Rain = 0
KVA1 262333Z 19020G27KT 33/01 A2986 RMK A01 T03330005  RH  012%=      5-min Rain = 0
KVA1 262334Z 19018KT 33/00 A2986 RMK A01 T03330004  RH  012%=      5-min Rain = 0
KVA1 262335Z 20016G21KT 33/00 A2986 RMK A01 T03320003  RH  012%=      5-min Rain = 0
KVA1 262336Z 19019G25KT 33/00 A2986 RMK A01 T03330004  RH  012%=      5-min Rain = 0
KVA1 262337Z 19016KT 33/00 A2986 RMK A01 T03320004  RH  012%=      5-min Rain = 0
KVA1 262338Z 18020G25KT 33/00 A2986 RMK A01 T03330004  RH  012%=      5-min Rain = 0
KVA1 262339Z 19016G23KT 33/00 A2986 RMK A01 T03340004  RH  012%=      5-min Rain = 0
KVA1 262340Z 19020KT 33/00 A2986 RMK A01 T03340004  RH  012%=      5-min Rain = 0
KVA1 262341Z 20018G24KT 33/00 A2986 RMK A01 T03340004  RH  012%=      5-min Rain = 0
KVA1 262342Z 20016KT 33/00 A2986 RMK A01 T03340004  RH  012%=      5-min Rain = 0
KVA1 262343Z 19016G21KT 33/00 A2985 RMK A01 T03330004  RH  012%=      5-min Rain = 0
KVA1 262344Z 19016G21KT 33/00 A2985 RMK A01 T03340004  RH  012%=      5-min Rain = 0
KVA1 262345Z 19015KT 33/00 A2985 RMK A01 T03340004  RH  012%=      5-min Rain = 0
KVA1 262346Z 19019KT 34/00 A2985 RMK A01 T03350004  RH  012%=      5-min Rain = 0
KVA1 262347Z 20017G22KT 33/00 A2985 RMK A01 T03340003  RH  012%=      5-min Rain = 0
KVA1 262348Z 19021KT 33/00 A2985 RMK A01 T03330002  RH  012%=      5-min Rain = 0
KVA1 262349Z 20015KT 33/00 A2985 RMK A01 T03320002  RH  012%=      5-min Rain = 0
KVA1 262350Z 20017KT 33/00 A2985 RMK A01 T03320003  RH  012%=      5-min Rain = 0
KVA1 262351Z 19019KT 33/00 A2985 RMK A01 T03320003  RH  012%=      5-min Rain = 0
KVA1 262352Z 19016KT 33/00 A2985 RMK A01 T03310003  RH  012%=      5-min Rain = 0
KVA1 262353Z 19018KT 33/00 A2985 RMK A01 T03300002  RH  012%=      5-min Rain = 0
KVA1 262354Z 20020KT 33/00 A2985 RMK A01 T03290002  RH  012%=      5-min Rain = 0
KVA1 262355Z 19019G26KT 33/00 A2985 RMK A01 T03280001  RH  012%=      5-min Rain = 0
KVA1 262356Z 19018G24KT 33/00 A2985 RMK A01 T03280001  RH  012%=      5-min Rain = 0
KVA1 262357Z 19019KT 33/00 A2985 RMK A01 T03290002  RH  012%=      5-min Rain = 0
KVA1 262358Z 18022G27KT 33/00 A2985 RMK A01 T03300002  RH  012%=      5-min Rain = 0
KVA1 262359Z 19021G27KT 33/00 A2985 RMK A01 T03310002  RH  012%=      5-min Rain = 0
KVA1 270000Z 20019G24KT 33/00 A2985 RMK A01 T03310002  RH  012%=      5-min Rain = 0
KVA1 270001Z 21017KT 33/00 A2985 RMK A01 T03300001  RH  012%=      5-min Rain = 0
KVA1 270002Z 22014KT 33/00 A2985 RMK A01 T03290002  RH  012%=      5-min Rain = 0
KVA1 270003Z 21015KT 33/00 A2985 RMK A01 T03290002  RH  012%=      5-min Rain = 0
KVA1 270004Z 20015KT 33/00 A2985 RMK A01 T03290002  RH  012%=      5-min Rain = 0
KVA1 270005Z 20017KT 33/00 A2985 RMK A01 T03310003  RH  012%=      5-min Rain = 0
KVA1 270006Z 20016KT 33/00 A2985 RMK A01 T03320004  RH  012%=      5-min Rain = 0
KVA1 270007Z 20017KT 33/00 A2985 RMK A01 T03330004  RH  012%=      5-min Rain = 0
KVA1 270008Z 20017G22KT 33/00 A2985 RMK A01 T03330003  RH  012%=      5-min Rain = 0
KVA1 270009Z 21020G27KT 33/00 A2985 RMK A01 T03330002  RH  012%=      5-min Rain = 0
KVA1 270010Z 20017KT 33/00 A2985 RMK A01 T03330000  RH  012%=      5-min Rain = 0
KVA1 270011Z 20017KT 33/00 A2985 RMK A01 T033200-0  RH  012%=      5-min Rain = 0
KVA1 270012Z 19015KT 33/00 A2985 RMK A01 T03310001  RH  012%=      5-min Rain = 0
KVA1 270013Z 19012G17KT 33/00 A2985 RMK A01 T03310001  RH  012%=      5-min Rain = 0
KVA1 270014Z 20017G24KT 33/00 A2985 RMK A01 T03310002  RH  012%=      5-min Rain = 0
KVA1 270015Z 19018KT 33/00 A2985 RMK A01 T03310002  RH  012%=      5-min Rain = 0
KVA1 270016Z 21015KT 33/00 A2985 RMK A01 T03310003  RH  012%=      5-min Rain = 0
KVA1 270017Z 20013KT 33/00 A2985 RMK A01 T03310003  RH  012%=      5-min Rain = 0
KVA1 270018Z 18014G19KT 33/00 A2985 RMK A01 T03320004  RH  012%=      5-min Rain = 0
KVA1 270019Z 19015KT 33/00 A2985 RMK A01 T03320004  RH  012%=      5-min Rain = 0
KVA1 270020Z 19014KT 33/00 A2985 RMK A01 T03320004  RH  012%=      5-min Rain = 0
KVA1 270021Z 19013KT 33/01 A2985 RMK A01 T03310005  RH  012%=      5-min Rain = 0
KVA1 270022Z 20013KT 33/01 A2984 RMK A01 T03310005  RH  013%=      5-min Rain = 0
KVA1 270023Z 19014KT 33/01 A2985 RMK A01 T03310006  RH  013%=      5-min Rain = 0
KVA1 270024Z 19018KT 33/01 A2984 RMK A01 T03310005  RH  013%=      5-min Rain = 0
KVA1 270025Z 18015KT 33/00 A2984 RMK A01 T03300004  RH  013%=      5-min Rain = 0
KVA1 270026Z 18016KT 33/00 A2984 RMK A01 T03300004  RH  013%=      5-min Rain = 0
KVA1 270027Z 19015G20KT 33/00 A2984 RMK A01 T03300004  RH  012%=      5-min Rain = 0
KVA1 270028Z 19015KT 33/01 A2984 RMK A01 T03310005  RH  013%=      5-min Rain = 0
KVA1 270029Z 20017G22KT 33/01 A2984 RMK A01 T03310006  RH  013%=      5-min Rain = 0
KVA1 270030Z 20015KT 33/00 A2984 RMK A01 T03310004  RH  012%=      5-min Rain = 0
KVA1 270031Z 21013KT 33/01 A2984 RMK A01 T03310005  RH  012%=      5-min Rain = 0
KVA1 270032Z 21016KT 33/00 A2984 RMK A01 T03320004  RH  012%=      5-min Rain = 0
KVA1 270033Z 20016G21KT 33/00 A2984 RMK A01 T03310003  RH  012%=      5-min Rain = 0
KVA1 270034Z 21018KT 33/00 A2984 RMK A01 T03310003  RH  012%=      5-min Rain = 0
KVA1 270035Z 21019G25KT 33/00 A2984 RMK A01 T03310003  RH  012%=      5-min Rain = 0
KVA1 270036Z 20017G23KT 33/00 A2984 RMK A01 T03310003  RH  012%=      5-min Rain = 0
KVA1 270037Z 20019KT 33/00 A2984 RMK A01 T03300002  RH  012%=      5-min Rain = 0
KVA1 270038Z 20016KT 33/00 A2984 RMK A01 T03300002  RH  012%=      5-min Rain = 0
KVA1 270039Z 20014KT 33/00 A2984 RMK A01 T03290002  RH  012%=      5-min Rain = 0
KVA1 270040Z 19012KT 33/00 A2984 RMK A01 T03300004  RH  012%=      5-min Rain = 0
KVA1 270041Z 20016G21KT 33/00 A2984 RMK A01 T03300003  RH  012%=      5-min Rain = 0
KVA1 270042Z 20016KT 33/00 A2984 RMK A01 T03300002  RH  012%=      5-min Rain = 0
KVA1 270043Z 20016KT 33/00 A2984 RMK A01 T03290002  RH  012%=      5-min Rain = 0
KVA1 270044Z 20019KT 33/00 A2984 RMK A01 T03290001  RH  012%=      5-min Rain = 0
KVA1 270045Z 20015KT 33/00 A2984 RMK A01 T03290001  RH  012%=      5-min Rain = 0
KVA1 270046Z 19016KT 33/00 A2984 RMK A01 T03280001  RH  012%=      5-min Rain = 0
KVA1 270047Z 20014KT 33/00 A2984 RMK A01 T03280001  RH  012%=      5-min Rain = 0
KVA1 270048Z 20014KT 33/00 A2984 RMK A01 T03280001  RH  012%=      5-min Rain = 0
KVA1 270049Z 20013KT 33/00 A2984 RMK A01 T03280002  RH  012%=      5-min Rain = 0
KVA1 270050Z 20014KT 33/00 A2984 RMK A01 T03280002  RH  012%=      5-min Rain = 0
KVA1 270051Z 20012KT 33/00 A2984 RMK A01 T03280002  RH  012%=      5-min Rain = 0
KVA1 270052Z 21015KT 33/00 A2984 RMK A01 T03280001  RH  012%=      5-min Rain = 0
KVA1 270053Z 20014KT 33/00 A2984 RMK A01 T03280002  RH  012%=      5-min Rain = 0
KVA1 270054Z 20013KT 33/00 A2984 RMK A01 T03280002  RH  012%=      5-min Rain = 0
KVA1 270055Z 20009KT 33/00 A2984 RMK A01 T03280002  RH  012%=      5-min Rain = 0
KVA1 270056Z 20011G20KT 33/00 A2985 RMK A01 T03280004  RH  013%=      5-min Rain = 0
KVA1 270057Z 20014G19KT 33/00 A2984 RMK A01 T03280003  RH  013%=      5-min Rain = 0
KVA1 270058Z 20012KT 33/00 A2984 RMK A01 T03280002  RH  012%=      5-min Rain = 0
KVA1 270059Z 19012KT 33/00 A2984 RMK A01 T03270002  RH  012%=      5-min Rain = 0
KVA1 270100Z 19013G18KT 33/00 A2984 RMK A01 T03270001  RH  012%=      5-min Rain = 0
KVA1 270101Z 19012KT 33/00 A2984 RMK A01 T03260001  RH  012%=      5-min Rain = 0
KVA1 270102Z 19013KT 33/00 A2984 RMK A01 T03260001  RH  013%=      5-min Rain = 0
KVA1 270103Z 19013G21KT 33/00 A2984 RMK A01 T03250001  RH  013%=      5-min Rain = 0
KVA1 270104Z 20016KT 33/00 A2984 RMK A01 T03250000  RH  013%=      5-min Rain = 0
KVA1 270105Z 20014KT 33/00 A2984 RMK A01 T03250000  RH  013%=      5-min Rain = 0
KVA1 270106Z 21011KT 33/00 A2985 RMK A01 T03250001  RH  013%=      5-min Rain = 0
KVA1 270107Z 21014KT 33/00 A2985 RMK A01 T03250001  RH  013%=      5-min Rain = 0
KVA1 270108Z 21016G21KT 33/00 A2985 RMK A01 T03250002  RH  013%=      5-min Rain = 0
KVA1 270109Z 21017KT 33/00 A2984 RMK A01 T03250002  RH  013%=      5-min Rain = 0
KVA1 270110Z 20017KT 33/00 A2984 RMK A01 T03250002  RH  013%=      5-min Rain = 0
KVA1 270111Z 21016KT 33/00 A2984 RMK A01 T03250002  RH  013%=      5-min Rain = 0
KVA1 270112Z 21017KT 33/00 A2984 RMK A01 T03250002  RH  013%=      5-min Rain = 0
KVA1 270113Z 21015KT 33/00 A2984 RMK A01 T03250002  RH  013%=      5-min Rain = 0
KVA1 270114Z 20014KT 32/00 A2985 RMK A01 T03240002  RH  013%=      5-min Rain = 0
KVA1 270115Z 20013KT 32/00 A2985 RMK A01 T03240002  RH  013%=      5-min Rain = 0
KVA1 270116Z 20017KT 32/00 A2984 RMK A01 T03240001  RH  013%=      5-min Rain = 0
KVA1 270117Z 20014G19KT 32/00 A2984 RMK A01 T03240001  RH  013%=      5-min Rain = 0
KVA1 270118Z 20014KT 32/00 A2985 RMK A01 T03240001  RH  013%=      5-min Rain = 0
KVA1 270119Z 20013KT 32/00 A2985 RMK A01 T03240001  RH  013%=      5-min Rain = 0
KVA1 270120Z 21015KT 32/00 A2985 RMK A01 T03230001  RH  013%=      5-min Rain = 0
KVA1 270121Z 21013G18KT 32/00 A2985 RMK A01 T03230001  RH  013%=      5-min Rain = 0
KVA1 270122Z 20010KT 32/00 A2985 RMK A01 T03230001  RH  013%=      5-min Rain = 0
KVA1 270123Z 20013G20KT 32/00 A2985 RMK A01 T03220001  RH  013%=      5-min Rain = 0
KVA1 270124Z 21013KT 32/00 A2985 RMK A01 T03220001  RH  013%=      5-min Rain = 0
KVA1 270125Z 21015KT 32/00 A2985 RMK A01 T032200-0  RH  013%=      5-min Rain = 0
KVA1 270126Z 22012KT 32/00 A2985 RMK A01 T032300-0  RH  013%=      5-min Rain = 0
KVA1 270127Z 21015KT 32/00 A2985 RMK A01 T032300-0  RH  013%=      5-min Rain = 0
KVA1 270128Z 21015KT 32/M00 A2985 RMK A01 T03221001  RH  013%=      5-min Rain = 0
KVA1 270129Z 22016KT 32/M00 A2985 RMK A01 T03231001  RH  013%=      5-min Rain = 0
KVA1 270130Z 22014KT 32/M00 A2985 RMK A01 T03231001  RH  013%=      5-min Rain = 0
KVA1 270131Z 20010KT 32/M00 A2985 RMK A01 T03231001  RH  013%=      5-min Rain = 0
KVA1 270132Z 20011KT 32/00 A2985 RMK A01 T032200-0  RH  013%=      5-min Rain = 0
KVA1 270133Z 20011KT 32/00 A2985 RMK A01 T032100-0  RH  013%=      5-min Rain = 0
KVA1 270134Z 20010KT 32/00 A2985 RMK A01 T03210000  RH  013%=      5-min Rain = 0
KVA1 270135Z 20008KT 32/00 A2985 RMK A01 T03200000  RH  013%=      5-min Rain = 0
KVA1 270136Z 20007KT 32/00 A2985 RMK A01 T03190001  RH  013%=      5-min Rain = 0
KVA1 270137Z 20008KT 32/00 A2985 RMK A01 T03180001  RH  013%=      5-min Rain = 0
KVA1 270138Z 21009KT 32/00 A2985 RMK A01 T03180000  RH  013%=      5-min Rain = 0
KVA1 270139Z 20009KT 32/00 A2985 RMK A01 T03180000  RH  013%=      5-min Rain = 0
KVA1 270140Z 20011KT 32/00 A2985 RMK A01 T031700-0  RH  013%=      5-min Rain = 0
KVA1 270141Z 20010KT 32/M00 A2985 RMK A01 T03181001  RH  013%=      5-min Rain = 0
KVA1 270142Z 20008KT 32/00 A2985 RMK A01 T031800-0  RH  013%=      5-min Rain = 0
KVA1 270143Z 21007KT 32/00 A2985 RMK A01 T031800-0  RH  013%=      5-min Rain = 0
KVA1 270144Z 21009KT 32/00 A2985 RMK A01 T03170000  RH  013%=      5-min Rain = 0
KVA1 270145Z 21012KT 32/00 A2985 RMK A01 T031700-0  RH  013%=      5-min Rain = 0
KVA1 270146Z 20011KT 32/00 A2985 RMK A01 T031700-0  RH  013%=      5-min Rain = 0
KVA1 270147Z 20010KT 32/00 A2985 RMK A01 T031700-0  RH  013%=      5-min Rain = 0
KVA1 270148Z 20010KT 32/00 A2985 RMK A01 T031700-0  RH  013%=      5-min Rain = 0
KVA1 270149Z 20009KT 32/00 A2985 RMK A01 T031600-0  RH  013%=      5-min Rain = 0
KVA1 270150Z 20008KT 32/00 A2985 RMK A01 T03160000  RH  013%=      5-min Rain = 0
KVA1 270151Z 20009KT 32/00 A2985 RMK A01 T03150000  RH  013%=      5-min Rain = 0
KVA1 270152Z 20010KT 32/00 A2985 RMK A01 T031500-0  RH  013%=      5-min Rain = 0
KVA1 270153Z 20010KT 31/00 A2985 RMK A01 T031400-0  RH  013%=      5-min Rain = 0
KVA1 270154Z 20011KT 31/00 A2985 RMK A01 T03140001  RH  013%=      5-min Rain = 0
KVA1 270155Z 20009KT 31/00 A2985 RMK A01 T03140000  RH  013%=      5-min Rain = 0
KVA1 270156Z 20009KT 31/00 A2985 RMK A01 T03140000  RH  013%=      5-min Rain = 0
KVA1 270157Z 20009KT 31/00 A2985 RMK A01 T03130000  RH  013%=      5-min Rain = 0
KVA1 270158Z 20008KT 31/00 A2985 RMK A01 T03130001  RH  013%=      5-min Rain = 0
KVA1 270159Z 21009KT 31/00 A2985 RMK A01 T03120000  RH  013%=      5-min Rain = 0
KVA1 270200Z 20009KT 31/00 A2985 RMK A01 T03120000  RH  013%=      5-min Rain = 0
KVA1 270201Z 21008KT 31/00 A2985 RMK A01 T03120000  RH  014%=      5-min Rain = 0
KVA1 270202Z 20008KT 31/00 A2985 RMK A01 T03110000  RH  014%=      5-min Rain = 0
KVA1 270203Z 21010KT 31/00 A2985 RMK A01 T03110000  RH  014%=      5-min Rain = 0
KVA1 270204Z 21008KT 31/00 A2985 RMK A01 T03110000  RH  014%=      5-min Rain = 0
KVA1 270205Z 21007KT 31/00 A2985 RMK A01 T03110001  RH  014%=      5-min Rain = 0
KVA1 270206Z 21008KT 31/00 A2985 RMK A01 T03110000  RH  014%=      5-min Rain = 0
KVA1 270207Z 21006KT 31/00 A2986 RMK A01 T03100000  RH  014%=      5-min Rain = 0
KVA1 270208Z 21007KT 31/00 A2986 RMK A01 T03090000  RH  014%=      5-min Rain = 0
KVA1 270209Z 21006KT 31/00 A2986 RMK A01 T03080001  RH  014%=      5-min Rain = 0
KVA1 270210Z 20007KT 31/00 A2986 RMK A01 T03070000  RH  014%=      5-min Rain = 0
KVA1 270211Z 20007KT 31/00 A2986 RMK A01 T03070000  RH  014%=      5-min Rain = 0
KVA1 270212Z 20008KT 31/00 A2986 RMK A01 T03060001  RH  014%=      5-min Rain = 0
KVA1 270213Z 21008KT 31/00 A2986 RMK A01 T03060000  RH  014%=      5-min Rain = 0
KVA1 270214Z 21007KT 31/00 A2986 RMK A01 T03060001  RH  014%=      5-min Rain = 0
KVA1 270215Z 22006KT 31/00 A2986 RMK A01 T03060000  RH  014%=      5-min Rain = 0
KVA1 270216Z 21006KT 31/00 A2986 RMK A01 T03050001  RH  014%=      5-min Rain = 0
KVA1 270217Z 22006KT 30/00 A2986 RMK A01 T03040000  RH  014%=      5-min Rain = 0
KVA1 270218Z 21006KT 30/00 A2986 RMK A01 T03040000  RH  014%=      5-min Rain = 0
KVA1 270219Z 22006KT 30/00 A2986 RMK A01 T03030000  RH  014%=      5-min Rain = 0
KVA1 270220Z 22006KT 30/00 A2986 RMK A01 T03030000  RH  014%=      5-min Rain = 0
KVA1 270221Z 22006KT 30/00 A2986 RMK A01 T03020001  RH  014%=      5-min Rain = 0
KVA1 270222Z 22005KT 30/00 A2986 RMK A01 T03020001  RH  014%=      5-min Rain = 0
KVA1 270223Z 23005KT 30/00 A2986 RMK A01 T03010000  RH  014%=      5-min Rain = 0
KVA1 270224Z 24005KT 30/00 A2986 RMK A01 T03000000  RH  014%=      5-min Rain = 0
KVA1 270225Z 24006KT 30/00 A2986 RMK A01 T02990001  RH  015%=      5-min Rain = 0
KVA1 270226Z 25007KT 30/00 A2986 RMK A01 T02970001  RH  015%=      5-min Rain = 0
KVA1 270227Z 26008KT 30/00 A2987 RMK A01 T02970002  RH  015%=      5-min Rain = 0
KVA1 270228Z 26006KT 30/00 A2987 RMK A01 T02970002  RH  015%=      5-min Rain = 0
KVA1 270229Z 26007KT 30/00 A2987 RMK A01 T02960001  RH  015%=      5-min Rain = 0
KVA1 270230Z 26007KT 30/00 A2987 RMK A01 T02960001  RH  015%=      5-min Rain = 0
KVA1 270231Z 25008KT 30/00 A2987 RMK A01 T02960002  RH  015%=      5-min Rain = 0
KVA1 270232Z 25008KT 30/00 A2987 RMK A01 T02970002  RH  015%=      5-min Rain = 0
KVA1 270233Z 25008KT 30/00 A2987 RMK A01 T02980002  RH  015%=      5-min Rain = 0
KVA1 270234Z 25007KT 30/00 A2987 RMK A01 T02990002  RH  015%=      5-min Rain = 0
KVA1 270235Z 25008KT 30/00 A2987 RMK A01 T02990002  RH  015%=      5-min Rain = 0
KVA1 270236Z 25008KT 30/00 A2987 RMK A01 T03010002  RH  015%=      5-min Rain = 0
KVA1 270237Z 24012G17KT 30/00 A2987 RMK A01 T03020001  RH  014%=      5-min Rain = 0
KVA1 270238Z 25011KT 31/00 A2987 RMK A01 T03060002  RH  014%=      5-min Rain = 0
KVA1 270239Z 25011G16KT 31/00 A2987 RMK A01 T03080001  RH  014%=      5-min Rain = 0
KVA1 270240Z 25007KT 31/00 A2987 RMK A01 T03100001  RH  014%=      5-min Rain = 0
KVA1 270241Z 25009KT 31/00 A2987 RMK A01 T03100001  RH  014%=      5-min Rain = 0
KVA1 270242Z 25009KT 31/00 A2987 RMK A01 T03110001  RH  014%=      5-min Rain = 0
KVA1 270243Z 25009KT 31/00 A2987 RMK A01 T03110001  RH  014%=      5-min Rain = 0
KVA1 270244Z 26008KT 31/00 A2987 RMK A01 T03110001  RH  014%=      5-min Rain = 0
KVA1 270245Z 27006KT 31/00 A2987 RMK A01 T03100001  RH  014%=      5-min Rain = 0
KVA1 270246Z 27006KT 31/00 A2987 RMK A01 T03090002  RH  014%=      5-min Rain = 0
KVA1 270247Z 27006KT 31/00 A2988 RMK A01 T03070002  RH  014%=      5-min Rain = 0
KVA1 270248Z 28006KT 31/00 A2988 RMK A01 T03050002  RH  014%=      5-min Rain = 0
KVA1 270249Z 27005KT 30/00 A2988 RMK A01 T03030001  RH  014%=      5-min Rain = 0
KVA1 270250Z 27006KT 30/00 A2988 RMK A01 T03020001  RH  014%=      5-min Rain = 0
KVA1 270251Z 26006KT 30/00 A2988 RMK A01 T03010002  RH  015%=      5-min Rain = 0
KVA1 270252Z 26006KT 30/00 A2988 RMK A01 T03000001  RH  015%=      5-min Rain = 0
KVA1 270253Z 26006KT 30/00 A2988 RMK A01 T02990001  RH  015%=      5-min Rain = 0
KVA1 270254Z 26006KT 30/00 A2988 RMK A01 T02990001  RH  015%=      5-min Rain = 0
KVA1 270255Z 26005KT 30/00 A2988 RMK A01 T02980000  RH  015%=      5-min Rain = 0
KVA1 270256Z 27005KT 30/M00 A2988 RMK A01 T02971001  RH  015%=      5-min Rain = 0
KVA1 270257Z 27005KT 30/M00 A2988 RMK A01 T02961001  RH  015%=      5-min Rain = 0
KVA1 270258Z 27005KT 30/M00 A2988 RMK A01 T02951002  RH  015%=      5-min Rain = 0
KVA1 270259Z 27007KT 29/M00 A2988 RMK A01 T02941004  RH  015%=      5-min Rain = 0
KVA1 270300Z 27006KT 29/M01 A2988 RMK A01 T02931008  RH  014%=      5-min Rain = 0
KVA1 270301Z 27006KT 29/M01 A2988 RMK A01 T02931007  RH  014%=      5-min Rain = 0
KVA1 270302Z 27006KT 29/M01 A2988 RMK A01 T02921010  RH  014%=      5-min Rain = 0
KVA1 270303Z 27006KT 29/M01 A2988 RMK A01 T02921011  RH  014%=      5-min Rain = 0
KVA1 270304Z 28006KT 29/M01 A2988 RMK A01 T02921014  RH  014%=      5-min Rain = 0
KVA1 270305Z 28006KT 29/M02 A2988 RMK A01 T02921016  RH  013%=      5-min Rain = 0
KVA1 270306Z 28006KT 29/M02 A2988 RMK A01 T02911018  RH  013%=      5-min Rain = 0
KVA1 270307Z 28006KT 29/M02 A2988 RMK A01 T02911021  RH  013%=      5-min Rain = 0
KVA1 270308Z 28005KT 29/M02 A2988 RMK A01 T02911022  RH  013%=      5-min Rain = 0
KVA1 270309Z 28005KT 29/M02 A2988 RMK A01 T02901023  RH  013%=      5-min Rain = 0
KVA1 270310Z 29005KT 29/M02 A2989 RMK A01 T02891024  RH  013%=      5-min Rain = 0
KVA1 270311Z 29006KT 29/M03 A2989 RMK A01 T02881025  RH  013%=      5-min Rain = 0
KVA1 270312Z 29006KT 29/M03 A2989 RMK A01 T02861026  RH  013%=      5-min Rain = 0
KVA1 270313Z 30007KT 29/M03 A2989 RMK A01 T02851027  RH  013%=      5-min Rain = 0
KVA1 270314Z 29007KT 28/M03 A2989 RMK A01 T02841027  RH  013%=      5-min Rain = 0
KVA1 270315Z 29009KT 28/M03 A2989 RMK A01 T02841028  RH  013%=      5-min Rain = 0
KVA1 270316Z 29008KT 28/M03 A2989 RMK A01 T02841030  RH  013%=      5-min Rain = 0
KVA1 270317Z 29007KT 28/M03 A2989 RMK A01 T02841033  RH  012%=      5-min Rain = 0
KVA1 270318Z 30008KT 29/M04 A2989 RMK A01 T02851035  RH  012%=      5-min Rain = 0
KVA1 270319Z 29008KT 29/M04 A2989 RMK A01 T02861037  RH  012%=      5-min Rain = 0
KVA1 270320Z 30008KT 29/M04 A299 RMK A01 T02861039  RH  012%=      5-min Rain = 0
KVA1 270321Z 30007KT 29/M04 A299 RMK A01 T02871040  RH  012%=      5-min Rain = 0
KVA1 270322Z 30007KT 29/M04 A299 RMK A01 T02871043  RH  011%=      5-min Rain = 0
KVA1 270323Z 30007G12KT 29/M05 A299 RMK A01 T02871048  RH  011%=      5-min Rain = 0
KVA1 270324Z 29009KT 29/M06 A299 RMK A01 T02881056  RH  010%=      5-min Rain = 0
KVA1 270325Z 29008KT 29/M06 A299 RMK A01 T02901057  RH  010%=      5-min Rain = 0
KVA1 270326Z 29008KT 29/M06 A299 RMK A01 T02901060  RH  010%=      5-min Rain = 0
KVA1 270327Z 30008KT 29/M06 A299 RMK A01 T02901063  RH  010%=      5-min Rain = 0
KVA1 270328Z 31008KT 29/M06 A299 RMK A01 T02901064  RH  009%=      5-min Rain = 0
KVA1 270329Z 31007KT 29/M07 A299 RMK A01 T02911068  RH  009%=      5-min Rain = 0
KVA1 270330Z 31006KT 29/M07 A299 RMK A01 T02911069  RH  009%=      5-min Rain = 0
KVA1 270331Z 31007KT 29/M07 A2991 RMK A01 T02911068  RH  009%=      5-min Rain = 0
KVA1 270332Z 31006KT 29/M07 A2991 RMK A01 T02911070  RH  009%=      5-min Rain = 0
KVA1 270333Z 30007KT 29/M07 A2991 RMK A01 T02901071  RH  009%=      5-min Rain = 0
KVA1 270334Z 30007KT 29/M07 A2991 RMK A01 T02901071  RH  009%=      5-min Rain = 0
KVA1 270335Z 31006KT 29/M07 A2991 RMK A01 T02901072  RH  009%=      5-min Rain = 0
KVA1 270336Z 31006KT 29/M07 A2991 RMK A01 T02891071  RH  009%=      5-min Rain = 0
KVA1 270337Z 31006KT 29/M07 A2991 RMK A01 T02881072  RH  009%=      5-min Rain = 0
KVA1 270338Z 31007KT 29/M07 A2991 RMK A01 T02881072  RH  009%=      5-min Rain = 0
KVA1 270339Z 32006KT 29/M07 A2991 RMK A01 T02881074  RH  009%=      5-min Rain = 0
KVA1 270340Z 30005KT 29/M07 A2991 RMK A01 T02881074  RH  009%=      5-min Rain = 0
KVA1 270341Z 31005KT 29/M07 A2991 RMK A01 T02871074  RH  009%=      5-min Rain = 0
KVA1 270342Z 31007KT 29/M08 A2991 RMK A01 T02871075  RH  009%=      5-min Rain = 0
KVA1 270343Z 30008KT 29/M08 A2992 RMK A01 T02881076  RH  009%=      5-min Rain = 0
KVA1 270344Z 30006KT 29/M08 A2992 RMK A01 T02881075  RH  009%=      5-min Rain = 0
KVA1 270345Z 30006KT 29/M08 A2992 RMK A01 T02881076  RH  009%=      5-min Rain = 0
KVA1 270346Z 30005KT 29/M08 A2992 RMK A01 T02871076  RH  009%=      5-min Rain = 0
KVA1 270347Z 30005KT 29/M08 A2992 RMK A01 T02871076  RH  009%=      5-min Rain = 0
KVA1 270348Z 30004KT 29/M08 A2992 RMK A01 T02861076  RH  009%=      5-min Rain = 0
KVA1 270349Z 31004KT 29/M08 A2992 RMK A01 T02851075  RH  009%=      5-min Rain = 0
KVA1 270350Z 32002KT 28/M08 A2992 RMK A01 T02841075  RH  009%=      5-min Rain = 0
KVA1 270351Z 31004KT 28/M08 A2992 RMK A01 T02831076  RH  009%=      5-min Rain = 0
KVA1 270352Z 31004KT 28/M07 A2993 RMK A01 T02821074  RH  009%=      5-min Rain = 0
KVA1 270353Z 31006KT 28/M07 A2993 RMK A01 T02811073  RH  009%=      5-min Rain = 0
KVA1 270354Z 30006KT 28/M07 A2993 RMK A01 T02811073  RH  009%=      5-min Rain = 0
KVA1 270355Z 30010KT 28/M07 A2993 RMK A01 T02821070  RH  010%=      5-min Rain = 0
KVA1 270356Z 30009KT 28/M07 A2993 RMK A01 T02831067  RH  010%=      5-min Rain = 0
KVA1 270357Z 32006KT 28/M07 A2993 RMK A01 T02841067  RH  010%=      5-min Rain = 0
KVA1 270358Z 31006KT 28/M07 A2993 RMK A01 T02841067  RH  010%=      5-min Rain = 0
KVA1 270359Z 32004KT 28/M07 A2993 RMK A01 T02841067  RH  010%=      5-min Rain = 0
KVA1 270400Z 32006KT 28/M07 A2993 RMK A01 T02831066  RH  010%=      5-min Rain = 0
KVA1 270401Z 31006KT 28/M07 A2993 RMK A01 T02821066  RH  010%=      5-min Rain = 0
KVA1 270402Z 31004KT 28/M07 A2993 RMK A01 T02811066  RH  010%=      5-min Rain = 0
KVA1 270403Z 33003KT 28/M07 A2993 RMK A01 T02801065  RH  010%=      5-min Rain = 0
KVA1 270404Z 34004KT 28/M07 A2993 RMK A01 T02791066  RH  010%=      5-min Rain = 0
KVA1 270405Z 32003KT 28/M07 A2993 RMK A01 T02801067  RH  010%=      5-min Rain = 0
KVA1 270406Z 31002KT 28/M07 A2994 RMK A01 T02801065  RH  010%=      5-min Rain = 0
KVA1 270407Z 35003KT 28/M06 A2994 RMK A01 T02791064  RH  010%=      5-min Rain = 0
KVA1 270408Z 05005KT 28/M07 A2994 RMK A01 T02791066  RH  010%=      5-min Rain = 0
KVA1 270409Z 08007KT 28/M07 A2994 RMK A01 T02781069  RH  010%=      5-min Rain = 0
KVA1 270410Z 10004KT 28/M07 A2994 RMK A01 T02781071  RH  010%=      5-min Rain = 0
KVA1 270411Z 12007KT 28/M07 A2994 RMK A01 T02771069  RH  010%=      5-min Rain = 0
KVA1 270412Z 12006KT 28/M07 A2994 RMK A01 T02771070  RH  010%=      5-min Rain = 0
KVA1 270413Z 12006KT 28/M07 A2994 RMK A01 T02771070  RH  010%=      5-min Rain = 0
KVA1 270414Z 12007KT 28/M07 A2994 RMK A01 T02751067  RH  010%=      5-min Rain = 0
KVA1 270415Z 13006KT 27/M07 A2994 RMK A01 T02731066  RH  010%=      5-min Rain = 0
KVA1 270416Z 13006KT 27/M07 A2994 RMK A01 T02711065  RH  011%=      5-min Rain = 0
KVA1 270417Z 13008KT 27/M07 A2994 RMK A01 T02691065  RH  011%=      5-min Rain = 0
KVA1 270418Z 13008KT 27/M07 A2994 RMK A01 T02671065  RH  011%=      5-min Rain = 0
KVA1 270419Z 12009KT 27/M06 A2994 RMK A01 T02651063  RH  011%=      5-min Rain = 0
KVA1 270420Z 13009KT 26/M06 A2994 RMK A01 T02631061  RH  011%=      5-min Rain = 0
KVA1 270421Z 13008KT 26/M06 A2994 RMK A01 T02621061  RH  011%=      5-min Rain = 0
KVA1 270422Z 14006KT 26/M06 A2994 RMK A01 T02611060  RH  012%=      5-min Rain = 0
KVA1 270423Z 17006KT 26/M06 A2994 RMK A01 T02611060  RH  012%=      5-min Rain = 0
KVA1 270424Z 14004KT 26/M06 A2995 RMK A01 T02621061  RH  011%=      5-min Rain = 0
KVA1 270425Z 12004KT 26/M06 A2995 RMK A01 T02621059  RH  012%=      5-min Rain = 0
KVA1 270426Z 15007KT 26/M06 A2995 RMK A01 T02621059  RH  012%=      5-min Rain = 0
KVA1 270427Z 16007KT 26/M06 A2995 RMK A01 T02621064  RH  011%=      5-min Rain = 0
KVA1 270428Z 16006KT 27/M06 A2995 RMK A01 T02661064  RH  011%=      5-min Rain = 0
KVA1 270429Z 15005KT 27/M06 A2995 RMK A01 T02691064  RH  011%=      5-min Rain = 0
KVA1 270430Z 15004KT 27/M06 A2995 RMK A01 T02701064  RH  011%=      5-min Rain = 0
KVA1 270431Z 17002KT 27/M07 A2995 RMK A01 T02721066  RH  010%=      5-min Rain = 0
KVA1 270432Z 21004KT 27/M06 A2995 RMK A01 T02741064  RH  010%=      5-min Rain = 0
KVA1 270433Z 22003KT 27/M06 A2995 RMK A01 T02741062  RH  011%=      5-min Rain = 0
KVA1 270434Z 22003KT 27/M06 A2995 RMK A01 T02711062  RH  011%=      5-min Rain = 0
KVA1 270435Z 22005KT 27/M06 A2995 RMK A01 T02681062  RH  011%=      5-min Rain = 0
KVA1 270436Z 19006KT 27/M06 A2995 RMK A01 T02651060  RH  011%=      5-min Rain = 0
KVA1 270437Z 20007KT 26/M06 A2995 RMK A01 T02631060  RH  011%=      5-min Rain = 0
KVA1 270438Z 20005KT 26/M06 A2995 RMK A01 T02621060  RH  011%=      5-min Rain = 0
KVA1 270439Z 21005KT 26/M06 A2995 RMK A01 T02611060  RH  012%=      5-min Rain = 0
KVA1 270440Z 21006KT 26/M06 A2995 RMK A01 T02611060  RH  012%=      5-min Rain = 0
KVA1 270441Z 22006KT 26/M06 A2995 RMK A01 T02601059  RH  012%=      5-min Rain = 0
KVA1 270442Z 21004KT 26/M06 A2995 RMK A01 T02581061  RH  012%=      5-min Rain = 0
KVA1 270443Z 21003KT 26/M06 A2995 RMK A01 T02561060  RH  012%=      5-min Rain = 0
KVA1 270444Z 21005KT 26/M06 A2995 RMK A01 T02561061  RH  012%=      5-min Rain = 0
KVA1 270445Z 22005KT 26/M06 A2995 RMK A01 T02561060  RH  012%=      5-min Rain = 0
KVA1 270446Z 21005KT 26/M06 A2995 RMK A01 T02591062  RH  012%=      5-min Rain = 0
KVA1 270447Z 21005KT 26/M06 A2995 RMK A01 T02641062  RH  011%=      5-min Rain = 0
KVA1 270448Z 18004KT 27/M06 A2995 RMK A01 T02671062  RH  011%=      5-min Rain = 0
KVA1 270449Z 18004KT 27/M06 A2995 RMK A01 T02681062  RH  011%=      5-min Rain = 0
KVA1 270450Z 21004KT 27/M06 A2995 RMK A01 T02681061  RH  011%=      5-min Rain = 0
KVA1 270451Z 20003KT 27/M06 A2995 RMK A01 T02661059  RH  011%=      5-min Rain = 0
KVA1 270452Z 19003KT 26/M06 A2995 RMK A01 T02641060  RH  011%=      5-min Rain = 0
KVA1 270453Z 20005KT 26/M06 A2995 RMK A01 T02631060  RH  011%=      5-min Rain = 0
KVA1 270454Z 19006KT 26/M06 A2995 RMK A01 T02621059  RH  012%=      5-min Rain = 0
KVA1 270455Z 19004KT 26/M06 A2995 RMK A01 T02601060  RH  012%=      5-min Rain = 0
KVA1 270456Z 22005KT 26/M06 A2995 RMK A01 T02601062  RH  011%=      5-min Rain = 0
KVA1 270457Z 21004KT 26/M06 A2995 RMK A01 T02631061  RH  011%=      5-min Rain = 0
KVA1 270458Z 21005KT 26/M06 A2996 RMK A01 T02641060  RH  011%=      5-min Rain = 0
KVA1 270459Z 21005KT 26/M06 A2996 RMK A01 T02621060  RH  011%=      5-min Rain = 0

Page generated in 0.0331 seconds.